<?xml version="1.0" encoding="UTF-8" standalone="no" ?>
<gpx xmlns="http://www.topografix.com/GPX/1/1" xmlns:xsi="http://www.w3.org/2001/XMLSchema-instance" xsi:schemaLocation="http://www.topografix.com/GPX/1/1 http://www.topografix.com/GPX/1/1/gpx.xsd" version="1.1" creator="VisuGPX - https://www.visugpx.com">
  <metadata>
    <name>VTT région Monein (64)</name>
    <desc><![CDATA[soleil - que du plat]]></desc>
  </metadata>
  <trk>
    <name><![CDATA[ACTIVE LOG 001]]></name>
    <trkseg>
      <trkpt lat="43.35617" lon="-0.583">
        <ele>107.324341</ele>
        <time>2011-05-08T12:16:26Z</time>
      </trkpt>
      <trkpt lat="43.35617" lon="-0.583">
        <ele>107.324341</ele>
        <time>2011-05-08T12:16:28Z</time>
      </trkpt>
      <trkpt lat="43.35617" lon="-0.58296">
        <ele>108.766235</ele>
        <time>2011-05-08T12:16:45Z</time>
      </trkpt>
      <trkpt lat="43.35617" lon="-0.58295">
        <ele>110.208252</ele>
        <time>2011-05-08T12:16:55Z</time>
      </trkpt>
      <trkpt lat="43.35618" lon="-0.58293">
        <ele>109.727661</ele>
        <time>2011-05-08T12:17:11Z</time>
      </trkpt>
      <trkpt lat="43.35624" lon="-0.58297">
        <ele>109.727661</ele>
        <time>2011-05-08T12:17:15Z</time>
      </trkpt>
      <trkpt lat="43.35655" lon="-0.58302">
        <ele>109.727661</ele>
        <time>2011-05-08T12:17:27Z</time>
      </trkpt>
      <trkpt lat="43.35661" lon="-0.58297">
        <ele>111.169556</ele>
        <time>2011-05-08T12:17:30Z</time>
      </trkpt>
      <trkpt lat="43.35662" lon="-0.58284">
        <ele>111.650269</ele>
        <time>2011-05-08T12:17:34Z</time>
      </trkpt>
      <trkpt lat="43.35652" lon="-0.58205">
        <ele>111.169556</ele>
        <time>2011-05-08T12:17:51Z</time>
      </trkpt>
      <trkpt lat="43.35665" lon="-0.58126">
        <ele>111.169556</ele>
        <time>2011-05-08T12:18:06Z</time>
      </trkpt>
      <trkpt lat="43.35696" lon="-0.58011">
        <ele>111.650269</ele>
        <time>2011-05-08T12:18:27Z</time>
      </trkpt>
      <trkpt lat="43.35727" lon="-0.57901">
        <ele>112.611572</ele>
        <time>2011-05-08T12:18:47Z</time>
      </trkpt>
      <trkpt lat="43.35744" lon="-0.57836">
        <ele>112.130981</ele>
        <time>2011-05-08T12:19:06Z</time>
      </trkpt>
      <trkpt lat="43.35774" lon="-0.57731">
        <ele>112.130981</ele>
        <time>2011-05-08T12:19:31Z</time>
      </trkpt>
      <trkpt lat="43.35806" lon="-0.57614">
        <ele>112.130981</ele>
        <time>2011-05-08T12:19:56Z</time>
      </trkpt>
      <trkpt lat="43.35808" lon="-0.57605">
        <ele>112.130981</ele>
        <time>2011-05-08T12:19:58Z</time>
      </trkpt>
      <trkpt lat="43.35806" lon="-0.57593">
        <ele>112.130981</ele>
        <time>2011-05-08T12:20:00Z</time>
      </trkpt>
      <trkpt lat="43.35804" lon="-0.57565">
        <ele>111.650269</ele>
        <time>2011-05-08T12:20:04Z</time>
      </trkpt>
      <trkpt lat="43.35782" lon="-0.57478">
        <ele>111.650269</ele>
        <time>2011-05-08T12:20:20Z</time>
      </trkpt>
      <trkpt lat="43.35748" lon="-0.57365">
        <ele>111.650269</ele>
        <time>2011-05-08T12:20:39Z</time>
      </trkpt>
      <trkpt lat="43.35713" lon="-0.57255">
        <ele>112.130981</ele>
        <time>2011-05-08T12:20:57Z</time>
      </trkpt>
      <trkpt lat="43.35671" lon="-0.57117">
        <ele>112.611572</ele>
        <time>2011-05-08T12:21:20Z</time>
      </trkpt>
      <trkpt lat="43.35667" lon="-0.57017">
        <ele>112.611572</ele>
        <time>2011-05-08T12:21:35Z</time>
      </trkpt>
      <trkpt lat="43.35685" lon="-0.56889">
        <ele>113.572998</ele>
        <time>2011-05-08T12:21:55Z</time>
      </trkpt>
      <trkpt lat="43.35703" lon="-0.56811">
        <ele>113.092285</ele>
        <time>2011-05-08T12:22:08Z</time>
      </trkpt>
      <trkpt lat="43.35715" lon="-0.56746">
        <ele>112.611572</ele>
        <time>2011-05-08T12:22:20Z</time>
      </trkpt>
      <trkpt lat="43.35705" lon="-0.56742">
        <ele>112.611572</ele>
        <time>2011-05-08T12:22:24Z</time>
      </trkpt>
      <trkpt lat="43.35629" lon="-0.56796">
        <ele>112.611572</ele>
        <time>2011-05-08T12:22:43Z</time>
      </trkpt>
      <trkpt lat="43.35535" lon="-0.56853">
        <ele>113.092285</ele>
        <time>2011-05-08T12:23:04Z</time>
      </trkpt>
      <trkpt lat="43.35528" lon="-0.56851">
        <ele>112.130981</ele>
        <time>2011-05-08T12:23:06Z</time>
      </trkpt>
      <trkpt lat="43.35523" lon="-0.56835">
        <ele>112.611572</ele>
        <time>2011-05-08T12:23:10Z</time>
      </trkpt>
      <trkpt lat="43.35514" lon="-0.5673">
        <ele>113.572998</ele>
        <time>2011-05-08T12:23:28Z</time>
      </trkpt>
      <trkpt lat="43.35508" lon="-0.56665">
        <ele>113.572998</ele>
        <time>2011-05-08T12:23:38Z</time>
      </trkpt>
      <trkpt lat="43.35477" lon="-0.56583">
        <ele>114.053589</ele>
        <time>2011-05-08T12:23:52Z</time>
      </trkpt>
      <trkpt lat="43.35467" lon="-0.5652">
        <ele>114.53418</ele>
        <time>2011-05-08T12:24:02Z</time>
      </trkpt>
      <trkpt lat="43.35452" lon="-0.56479">
        <ele>114.53418</ele>
        <time>2011-05-08T12:24:12Z</time>
      </trkpt>
      <trkpt lat="43.35379" lon="-0.56478">
        <ele>115.495605</ele>
        <time>2011-05-08T12:24:28Z</time>
      </trkpt>
      <trkpt lat="43.35267" lon="-0.56479">
        <ele>115.495605</ele>
        <time>2011-05-08T12:24:50Z</time>
      </trkpt>
      <trkpt lat="43.35178" lon="-0.56462">
        <ele>115.495605</ele>
        <time>2011-05-08T12:25:09Z</time>
      </trkpt>
      <trkpt lat="43.35136" lon="-0.56433">
        <ele>115.495605</ele>
        <time>2011-05-08T12:25:22Z</time>
      </trkpt>
      <trkpt lat="43.35121" lon="-0.56397">
        <ele>115.495605</ele>
        <time>2011-05-08T12:25:30Z</time>
      </trkpt>
      <trkpt lat="43.35115" lon="-0.56378">
        <ele>115.495605</ele>
        <time>2011-05-08T12:25:34Z</time>
      </trkpt>
      <trkpt lat="43.35119" lon="-0.56265">
        <ele>115.495605</ele>
        <time>2011-05-08T12:25:51Z</time>
      </trkpt>
      <trkpt lat="43.35119" lon="-0.56116">
        <ele>115.976196</ele>
        <time>2011-05-08T12:26:13Z</time>
      </trkpt>
      <trkpt lat="43.35082" lon="-0.56004">
        <ele>115.976196</ele>
        <time>2011-05-08T12:26:31Z</time>
      </trkpt>
      <trkpt lat="43.35036" lon="-0.55868">
        <ele>116.456787</ele>
        <time>2011-05-08T12:26:53Z</time>
      </trkpt>
      <trkpt lat="43.34984" lon="-0.55711">
        <ele>116.9375</ele>
        <time>2011-05-08T12:27:19Z</time>
      </trkpt>
      <trkpt lat="43.34966" lon="-0.55659">
        <ele>116.9375</ele>
        <time>2011-05-08T12:27:28Z</time>
      </trkpt>
      <trkpt lat="43.34969" lon="-0.55633">
        <ele>116.9375</ele>
        <time>2011-05-08T12:27:33Z</time>
      </trkpt>
      <trkpt lat="43.34999" lon="-0.55585">
        <ele>117.418213</ele>
        <time>2011-05-08T12:27:43Z</time>
      </trkpt>
      <trkpt lat="43.35002" lon="-0.55552">
        <ele>117.418213</ele>
        <time>2011-05-08T12:27:48Z</time>
      </trkpt>
      <trkpt lat="43.34979" lon="-0.5547">
        <ele>116.9375</ele>
        <time>2011-05-08T12:28:01Z</time>
      </trkpt>
      <trkpt lat="43.3498" lon="-0.55446">
        <ele>116.9375</ele>
        <time>2011-05-08T12:28:05Z</time>
      </trkpt>
      <trkpt lat="43.35034" lon="-0.55311">
        <ele>117.418213</ele>
        <time>2011-05-08T12:28:28Z</time>
      </trkpt>
      <trkpt lat="43.35055" lon="-0.55267">
        <ele>117.898804</ele>
        <time>2011-05-08T12:28:37Z</time>
      </trkpt>
      <trkpt lat="43.3507" lon="-0.55274">
        <ele>117.418213</ele>
        <time>2011-05-08T12:28:41Z</time>
      </trkpt>
      <trkpt lat="43.35145" lon="-0.55345">
        <ele>116.9375</ele>
        <time>2011-05-08T12:29:00Z</time>
      </trkpt>
      <trkpt lat="43.35177" lon="-0.55375">
        <ele>117.898804</ele>
        <time>2011-05-08T12:29:08Z</time>
      </trkpt>
      <trkpt lat="43.352" lon="-0.5538">
        <ele>116.9375</ele>
        <time>2011-05-08T12:29:13Z</time>
      </trkpt>
      <trkpt lat="43.35213" lon="-0.55377">
        <ele>117.898804</ele>
        <time>2011-05-08T12:29:16Z</time>
      </trkpt>
      <trkpt lat="43.35227" lon="-0.55354">
        <ele>118.860107</ele>
        <time>2011-05-08T12:29:22Z</time>
      </trkpt>
      <trkpt lat="43.35227" lon="-0.55343">
        <ele>118.379395</ele>
        <time>2011-05-08T12:29:24Z</time>
      </trkpt>
      <trkpt lat="43.35222" lon="-0.55316">
        <ele>119.34082</ele>
        <time>2011-05-08T12:29:29Z</time>
      </trkpt>
      <trkpt lat="43.35216" lon="-0.55233">
        <ele>122.224731</ele>
        <time>2011-05-08T12:29:44Z</time>
      </trkpt>
      <trkpt lat="43.3518" lon="-0.55165">
        <ele>123.186157</ele>
        <time>2011-05-08T12:29:59Z</time>
      </trkpt>
      <trkpt lat="43.35177" lon="-0.5516">
        <ele>123.186157</ele>
        <time>2011-05-08T12:30:00Z</time>
      </trkpt>
      <trkpt lat="43.35164" lon="-0.55138">
        <ele>123.666748</ele>
        <time>2011-05-08T12:30:05Z</time>
      </trkpt>
      <trkpt lat="43.35143" lon="-0.55119">
        <ele>124.147339</ele>
        <time>2011-05-08T12:30:11Z</time>
      </trkpt>
      <trkpt lat="43.35099" lon="-0.551">
        <ele>124.147339</ele>
        <time>2011-05-08T12:30:22Z</time>
      </trkpt>
      <trkpt lat="43.35095" lon="-0.55098">
        <ele>123.186157</ele>
        <time>2011-05-08T12:30:23Z</time>
      </trkpt>
      <trkpt lat="43.35086" lon="-0.55093">
        <ele>124.147339</ele>
        <time>2011-05-08T12:30:25Z</time>
      </trkpt>
      <trkpt lat="43.35046" lon="-0.55073">
        <ele>123.186157</ele>
        <time>2011-05-08T12:30:33Z</time>
      </trkpt>
      <trkpt lat="43.35007" lon="-0.55032">
        <ele>122.705444</ele>
        <time>2011-05-08T12:30:43Z</time>
      </trkpt>
      <trkpt lat="43.34957" lon="-0.54951">
        <ele>123.666748</ele>
        <time>2011-05-08T12:30:59Z</time>
      </trkpt>
      <trkpt lat="43.34926" lon="-0.54913">
        <ele>125.589355</ele>
        <time>2011-05-08T12:31:10Z</time>
      </trkpt>
      <trkpt lat="43.34869" lon="-0.54891">
        <ele>124.628052</ele>
        <time>2011-05-08T12:31:25Z</time>
      </trkpt>
      <trkpt lat="43.3486" lon="-0.5489">
        <ele>125.589355</ele>
        <time>2011-05-08T12:31:27Z</time>
      </trkpt>
      <trkpt lat="43.34838" lon="-0.54872">
        <ele>124.628052</ele>
        <time>2011-05-08T12:31:33Z</time>
      </trkpt>
      <trkpt lat="43.34785" lon="-0.54798">
        <ele>124.147339</ele>
        <time>2011-05-08T12:31:48Z</time>
      </trkpt>
      <trkpt lat="43.34774" lon="-0.54786">
        <ele>125.589355</ele>
        <time>2011-05-08T12:31:52Z</time>
      </trkpt>
      <trkpt lat="43.34745" lon="-0.54749">
        <ele>128.473389</ele>
        <time>2011-05-08T12:32:04Z</time>
      </trkpt>
      <trkpt lat="43.34727" lon="-0.54729">
        <ele>128.473389</ele>
        <time>2011-05-08T12:32:10Z</time>
      </trkpt>
      <trkpt lat="43.34683" lon="-0.54695">
        <ele>127.992554</ele>
        <time>2011-05-08T12:32:21Z</time>
      </trkpt>
      <trkpt lat="43.34658" lon="-0.54677">
        <ele>130.395996</ele>
        <time>2011-05-08T12:32:28Z</time>
      </trkpt>
      <trkpt lat="43.34633" lon="-0.54668">
        <ele>129.915283</ele>
        <time>2011-05-08T12:32:37Z</time>
      </trkpt>
      <trkpt lat="43.34628" lon="-0.54667">
        <ele>129.915283</ele>
        <time>2011-05-08T12:32:38Z</time>
      </trkpt>
      <trkpt lat="43.34607" lon="-0.54651">
        <ele>127.511963</ele>
        <time>2011-05-08T12:32:43Z</time>
      </trkpt>
      <trkpt lat="43.34605" lon="-0.54645">
        <ele>127.031372</ele>
        <time>2011-05-08T12:32:44Z</time>
      </trkpt>
      <trkpt lat="43.34596" lon="-0.54609">
        <ele>126.069946</ele>
        <time>2011-05-08T12:32:49Z</time>
      </trkpt>
      <trkpt lat="43.34587" lon="-0.54576">
        <ele>125.108765</ele>
        <time>2011-05-08T12:32:54Z</time>
      </trkpt>
      <trkpt lat="43.3456" lon="-0.54546">
        <ele>126.069946</ele>
        <time>2011-05-08T12:33:02Z</time>
      </trkpt>
      <trkpt lat="43.34536" lon="-0.54551">
        <ele>126.069946</ele>
        <time>2011-05-08T12:33:07Z</time>
      </trkpt>
      <trkpt lat="43.34517" lon="-0.54548">
        <ele>125.589355</ele>
        <time>2011-05-08T12:33:11Z</time>
      </trkpt>
      <trkpt lat="43.34488" lon="-0.54527">
        <ele>124.628052</ele>
        <time>2011-05-08T12:33:18Z</time>
      </trkpt>
      <trkpt lat="43.34452" lon="-0.54509">
        <ele>124.147339</ele>
        <time>2011-05-08T12:33:25Z</time>
      </trkpt>
      <trkpt lat="43.34377" lon="-0.54478">
        <ele>124.147339</ele>
        <time>2011-05-08T12:33:40Z</time>
      </trkpt>
      <trkpt lat="43.34352" lon="-0.5445">
        <ele>123.186157</ele>
        <time>2011-05-08T12:33:46Z</time>
      </trkpt>
      <trkpt lat="43.34332" lon="-0.54426">
        <ele>123.666748</ele>
        <time>2011-05-08T12:33:51Z</time>
      </trkpt>
      <trkpt lat="43.34321" lon="-0.54404">
        <ele>124.147339</ele>
        <time>2011-05-08T12:33:55Z</time>
      </trkpt>
      <trkpt lat="43.34311" lon="-0.54359">
        <ele>125.108765</ele>
        <time>2011-05-08T12:34:02Z</time>
      </trkpt>
      <trkpt lat="43.34305" lon="-0.54341">
        <ele>125.108765</ele>
        <time>2011-05-08T12:34:05Z</time>
      </trkpt>
      <trkpt lat="43.34258" lon="-0.54255">
        <ele>123.186157</ele>
        <time>2011-05-08T12:34:21Z</time>
      </trkpt>
      <trkpt lat="43.34242" lon="-0.54237">
        <ele>122.705444</ele>
        <time>2011-05-08T12:34:25Z</time>
      </trkpt>
      <trkpt lat="43.34232" lon="-0.54229">
        <ele>123.186157</ele>
        <time>2011-05-08T12:34:27Z</time>
      </trkpt>
      <trkpt lat="43.34197" lon="-0.54207">
        <ele>122.224731</ele>
        <time>2011-05-08T12:34:34Z</time>
      </trkpt>
      <trkpt lat="43.34171" lon="-0.54189">
        <ele>122.705444</ele>
        <time>2011-05-08T12:34:40Z</time>
      </trkpt>
      <trkpt lat="43.34159" lon="-0.5418">
        <ele>123.186157</ele>
        <time>2011-05-08T12:34:43Z</time>
      </trkpt>
      <trkpt lat="43.34136" lon="-0.54161">
        <ele>125.108765</ele>
        <time>2011-05-08T12:34:49Z</time>
      </trkpt>
      <trkpt lat="43.34092" lon="-0.54105">
        <ele>126.550659</ele>
        <time>2011-05-08T12:35:03Z</time>
      </trkpt>
      <trkpt lat="43.34038" lon="-0.54023">
        <ele>127.992554</ele>
        <time>2011-05-08T12:35:20Z</time>
      </trkpt>
      <trkpt lat="43.33974" lon="-0.53962">
        <ele>126.069946</ele>
        <time>2011-05-08T12:35:35Z</time>
      </trkpt>
      <trkpt lat="43.33927" lon="-0.53922">
        <ele>124.628052</ele>
        <time>2011-05-08T12:35:45Z</time>
      </trkpt>
      <trkpt lat="43.33893" lon="-0.53905">
        <ele>124.628052</ele>
        <time>2011-05-08T12:35:51Z</time>
      </trkpt>
      <trkpt lat="43.33876" lon="-0.53899">
        <ele>124.628052</ele>
        <time>2011-05-08T12:35:54Z</time>
      </trkpt>
      <trkpt lat="43.33848" lon="-0.53882">
        <ele>125.108765</ele>
        <time>2011-05-08T12:35:59Z</time>
      </trkpt>
      <trkpt lat="43.3379" lon="-0.53813">
        <ele>127.031372</ele>
        <time>2011-05-08T12:36:14Z</time>
      </trkpt>
      <trkpt lat="43.33733" lon="-0.5372">
        <ele>125.108765</ele>
        <time>2011-05-08T12:36:30Z</time>
      </trkpt>
      <trkpt lat="43.33702" lon="-0.53677">
        <ele>126.069946</ele>
        <time>2011-05-08T12:36:38Z</time>
      </trkpt>
      <trkpt lat="43.33645" lon="-0.53574">
        <ele>126.550659</ele>
        <time>2011-05-08T12:36:56Z</time>
      </trkpt>
      <trkpt lat="43.33609" lon="-0.53532">
        <ele>126.069946</ele>
        <time>2011-05-08T12:37:05Z</time>
      </trkpt>
      <trkpt lat="43.33582" lon="-0.53518">
        <ele>125.108765</ele>
        <time>2011-05-08T12:37:10Z</time>
      </trkpt>
      <trkpt lat="43.33539" lon="-0.53507">
        <ele>125.589355</ele>
        <time>2011-05-08T12:37:19Z</time>
      </trkpt>
      <trkpt lat="43.33474" lon="-0.53481">
        <ele>126.550659</ele>
        <time>2011-05-08T12:37:32Z</time>
      </trkpt>
      <trkpt lat="43.33404" lon="-0.53445">
        <ele>127.992554</ele>
        <time>2011-05-08T12:37:47Z</time>
      </trkpt>
      <trkpt lat="43.33364" lon="-0.53392">
        <ele>128.473389</ele>
        <time>2011-05-08T12:38:01Z</time>
      </trkpt>
      <trkpt lat="43.33365" lon="-0.53353">
        <ele>128.473389</ele>
        <time>2011-05-08T12:38:12Z</time>
      </trkpt>
      <trkpt lat="43.33411" lon="-0.53293">
        <ele>130.395996</ele>
        <time>2011-05-08T12:38:29Z</time>
      </trkpt>
      <trkpt lat="43.33476" lon="-0.53204">
        <ele>132.318604</ele>
        <time>2011-05-08T12:38:51Z</time>
      </trkpt>
      <trkpt lat="43.33461" lon="-0.53186">
        <ele>131.837891</ele>
        <time>2011-05-08T12:38:57Z</time>
      </trkpt>
      <trkpt lat="43.33452" lon="-0.53186">
        <ele>132.318604</ele>
        <time>2011-05-08T12:38:59Z</time>
      </trkpt>
      <trkpt lat="43.3343" lon="-0.53193">
        <ele>131.3573</ele>
        <time>2011-05-08T12:39:04Z</time>
      </trkpt>
      <trkpt lat="43.33409" lon="-0.532">
        <ele>131.837891</ele>
        <time>2011-05-08T12:39:09Z</time>
      </trkpt>
      <trkpt lat="43.33364" lon="-0.53209">
        <ele>132.799316</ele>
        <time>2011-05-08T12:39:21Z</time>
      </trkpt>
      <trkpt lat="43.3335" lon="-0.53201">
        <ele>133.279907</ele>
        <time>2011-05-08T12:39:25Z</time>
      </trkpt>
      <trkpt lat="43.33337" lon="-0.53185">
        <ele>132.799316</ele>
        <time>2011-05-08T12:39:29Z</time>
      </trkpt>
      <trkpt lat="43.33332" lon="-0.53174">
        <ele>132.799316</ele>
        <time>2011-05-08T12:39:31Z</time>
      </trkpt>
      <trkpt lat="43.33317" lon="-0.53118">
        <ele>135.202515</ele>
        <time>2011-05-08T12:39:41Z</time>
      </trkpt>
      <trkpt lat="43.33298" lon="-0.53051">
        <ele>135.202515</ele>
        <time>2011-05-08T12:39:54Z</time>
      </trkpt>
      <trkpt lat="43.33252" lon="-0.52987">
        <ele>132.318604</ele>
        <time>2011-05-08T12:40:07Z</time>
      </trkpt>
      <trkpt lat="43.33198" lon="-0.52939">
        <ele>132.799316</ele>
        <time>2011-05-08T12:40:20Z</time>
      </trkpt>
      <trkpt lat="43.33194" lon="-0.52935">
        <ele>132.799316</ele>
        <time>2011-05-08T12:40:21Z</time>
      </trkpt>
      <trkpt lat="43.33144" lon="-0.52857">
        <ele>132.318604</ele>
        <time>2011-05-08T12:40:36Z</time>
      </trkpt>
      <trkpt lat="43.33118" lon="-0.5282">
        <ele>133.279907</ele>
        <time>2011-05-08T12:40:43Z</time>
      </trkpt>
      <trkpt lat="43.33107" lon="-0.52806">
        <ele>133.760498</ele>
        <time>2011-05-08T12:40:46Z</time>
      </trkpt>
      <trkpt lat="43.33065" lon="-0.52724">
        <ele>133.760498</ele>
        <time>2011-05-08T12:41:00Z</time>
      </trkpt>
      <trkpt lat="43.33044" lon="-0.52645">
        <ele>132.318604</ele>
        <time>2011-05-08T12:41:11Z</time>
      </trkpt>
      <trkpt lat="43.33015" lon="-0.52587">
        <ele>134.721924</ele>
        <time>2011-05-08T12:41:22Z</time>
      </trkpt>
      <trkpt lat="43.33007" lon="-0.52567">
        <ele>136.16394</ele>
        <time>2011-05-08T12:41:26Z</time>
      </trkpt>
      <trkpt lat="43.3298" lon="-0.52509">
        <ele>137.125244</ele>
        <time>2011-05-08T12:41:38Z</time>
      </trkpt>
      <trkpt lat="43.3297" lon="-0.52484">
        <ele>138.086548</ele>
        <time>2011-05-08T12:41:43Z</time>
      </trkpt>
      <trkpt lat="43.32961" lon="-0.52451">
        <ele>139.047852</ele>
        <time>2011-05-08T12:41:49Z</time>
      </trkpt>
      <trkpt lat="43.32957" lon="-0.52423">
        <ele>139.047852</ele>
        <time>2011-05-08T12:41:54Z</time>
      </trkpt>
      <trkpt lat="43.32951" lon="-0.52401">
        <ele>139.528442</ele>
        <time>2011-05-08T12:41:58Z</time>
      </trkpt>
      <trkpt lat="43.32939" lon="-0.52327">
        <ele>139.528442</ele>
        <time>2011-05-08T12:42:13Z</time>
      </trkpt>
      <trkpt lat="43.32924" lon="-0.52298">
        <ele>139.528442</ele>
        <time>2011-05-08T12:42:20Z</time>
      </trkpt>
      <trkpt lat="43.32916" lon="-0.52291">
        <ele>139.047852</ele>
        <time>2011-05-08T12:42:22Z</time>
      </trkpt>
      <trkpt lat="43.32908" lon="-0.52287">
        <ele>138.567261</ele>
        <time>2011-05-08T12:42:24Z</time>
      </trkpt>
      <trkpt lat="43.32861" lon="-0.52287">
        <ele>136.16394</ele>
        <time>2011-05-08T12:42:32Z</time>
      </trkpt>
      <trkpt lat="43.32842" lon="-0.52286">
        <ele>134.721924</ele>
        <time>2011-05-08T12:42:35Z</time>
      </trkpt>
      <trkpt lat="43.32821" lon="-0.52282">
        <ele>133.760498</ele>
        <time>2011-05-08T12:42:38Z</time>
      </trkpt>
      <trkpt lat="43.32806" lon="-0.52277">
        <ele>133.279907</ele>
        <time>2011-05-08T12:42:40Z</time>
      </trkpt>
      <trkpt lat="43.32739" lon="-0.52239">
        <ele>131.837891</ele>
        <time>2011-05-08T12:42:50Z</time>
      </trkpt>
      <trkpt lat="43.32724" lon="-0.52231">
        <ele>130.395996</ele>
        <time>2011-05-08T12:42:53Z</time>
      </trkpt>
      <trkpt lat="43.32676" lon="-0.52197">
        <ele>132.318604</ele>
        <time>2011-05-08T12:43:05Z</time>
      </trkpt>
      <trkpt lat="43.3265" lon="-0.52169">
        <ele>132.318604</ele>
        <time>2011-05-08T12:43:12Z</time>
      </trkpt>
      <trkpt lat="43.32629" lon="-0.52138">
        <ele>132.318604</ele>
        <time>2011-05-08T12:43:18Z</time>
      </trkpt>
      <trkpt lat="43.32615" lon="-0.52118">
        <ele>132.799316</ele>
        <time>2011-05-08T12:43:22Z</time>
      </trkpt>
      <trkpt lat="43.32608" lon="-0.52107">
        <ele>132.318604</ele>
        <time>2011-05-08T12:43:24Z</time>
      </trkpt>
      <trkpt lat="43.32594" lon="-0.52087">
        <ele>132.799316</ele>
        <time>2011-05-08T12:43:28Z</time>
      </trkpt>
      <trkpt lat="43.32573" lon="-0.52051">
        <ele>134.721924</ele>
        <time>2011-05-08T12:43:35Z</time>
      </trkpt>
      <trkpt lat="43.32565" lon="-0.52035">
        <ele>134.721924</ele>
        <time>2011-05-08T12:43:38Z</time>
      </trkpt>
      <trkpt lat="43.32557" lon="-0.52021">
        <ele>135.683105</ele>
        <time>2011-05-08T12:43:41Z</time>
      </trkpt>
      <trkpt lat="43.32538" lon="-0.51995">
        <ele>136.644653</ele>
        <time>2011-05-08T12:43:47Z</time>
      </trkpt>
      <trkpt lat="43.32477" lon="-0.51944">
        <ele>137.125244</ele>
        <time>2011-05-08T12:44:03Z</time>
      </trkpt>
      <trkpt lat="43.3243" lon="-0.51905">
        <ele>135.683105</ele>
        <time>2011-05-08T12:44:15Z</time>
      </trkpt>
      <trkpt lat="43.32371" lon="-0.51855">
        <ele>132.799316</ele>
        <time>2011-05-08T12:44:26Z</time>
      </trkpt>
      <trkpt lat="43.32364" lon="-0.5185">
        <ele>132.318604</ele>
        <time>2011-05-08T12:44:27Z</time>
      </trkpt>
      <trkpt lat="43.32332" lon="-0.51822">
        <ele>132.318604</ele>
        <time>2011-05-08T12:44:33Z</time>
      </trkpt>
      <trkpt lat="43.32292" lon="-0.51776">
        <ele>134.241211</ele>
        <time>2011-05-08T12:44:43Z</time>
      </trkpt>
      <trkpt lat="43.32275" lon="-0.51741">
        <ele>134.721924</ele>
        <time>2011-05-08T12:44:49Z</time>
      </trkpt>
      <trkpt lat="43.32253" lon="-0.51698">
        <ele>135.683105</ele>
        <time>2011-05-08T12:44:57Z</time>
      </trkpt>
      <trkpt lat="43.32243" lon="-0.51684">
        <ele>135.683105</ele>
        <time>2011-05-08T12:45:00Z</time>
      </trkpt>
      <trkpt lat="43.32207" lon="-0.51643">
        <ele>137.125244</ele>
        <time>2011-05-08T12:45:10Z</time>
      </trkpt>
      <trkpt lat="43.32194" lon="-0.51629">
        <ele>137.125244</ele>
        <time>2011-05-08T12:45:14Z</time>
      </trkpt>
      <trkpt lat="43.32155" lon="-0.51593">
        <ele>136.644653</ele>
        <time>2011-05-08T12:45:24Z</time>
      </trkpt>
      <trkpt lat="43.32114" lon="-0.5156">
        <ele>139.528442</ele>
        <time>2011-05-08T12:45:36Z</time>
      </trkpt>
      <trkpt lat="43.32062" lon="-0.51513">
        <ele>141.931763</ele>
        <time>2011-05-08T12:45:50Z</time>
      </trkpt>
      <trkpt lat="43.32039" lon="-0.51475">
        <ele>142.412476</ele>
        <time>2011-05-08T12:46:00Z</time>
      </trkpt>
      <trkpt lat="43.32034" lon="-0.5146">
        <ele>142.412476</ele>
        <time>2011-05-08T12:46:08Z</time>
      </trkpt>
      <trkpt lat="43.32038" lon="-0.5146">
        <ele>142.893066</ele>
        <time>2011-05-08T12:46:12Z</time>
      </trkpt>
      <trkpt lat="43.32039" lon="-0.51478">
        <ele>141.931763</ele>
        <time>2011-05-08T12:46:22Z</time>
      </trkpt>
      <trkpt lat="43.3204" lon="-0.51477">
        <ele>142.412476</ele>
        <time>2011-05-08T12:47:05Z</time>
      </trkpt>
      <trkpt lat="43.32019" lon="-0.51448">
        <ele>141.931763</ele>
        <time>2011-05-08T12:47:19Z</time>
      </trkpt>
      <trkpt lat="43.32014" lon="-0.51446">
        <ele>141.45105</ele>
        <time>2011-05-08T12:47:20Z</time>
      </trkpt>
      <trkpt lat="43.31998" lon="-0.51442">
        <ele>140.009155</ele>
        <time>2011-05-08T12:47:23Z</time>
      </trkpt>
      <trkpt lat="43.31974" lon="-0.51427">
        <ele>139.528442</ele>
        <time>2011-05-08T12:47:27Z</time>
      </trkpt>
      <trkpt lat="43.31945" lon="-0.51413">
        <ele>139.528442</ele>
        <time>2011-05-08T12:47:32Z</time>
      </trkpt>
      <trkpt lat="43.31936" lon="-0.51409">
        <ele>139.047852</ele>
        <time>2011-05-08T12:47:34Z</time>
      </trkpt>
      <trkpt lat="43.31923" lon="-0.51391">
        <ele>140.009155</ele>
        <time>2011-05-08T12:47:38Z</time>
      </trkpt>
      <trkpt lat="43.3192" lon="-0.51381">
        <ele>140.009155</ele>
        <time>2011-05-08T12:47:40Z</time>
      </trkpt>
      <trkpt lat="43.31899" lon="-0.5137">
        <ele>142.412476</ele>
        <time>2011-05-08T12:47:49Z</time>
      </trkpt>
      <trkpt lat="43.31897" lon="-0.51372">
        <ele>142.412476</ele>
        <time>2011-05-08T12:47:50Z</time>
      </trkpt>
      <trkpt lat="43.31872" lon="-0.51414">
        <ele>142.412476</ele>
        <time>2011-05-08T12:48:03Z</time>
      </trkpt>
      <trkpt lat="43.31832" lon="-0.5144">
        <ele>143.85437</ele>
        <time>2011-05-08T12:48:15Z</time>
      </trkpt>
      <trkpt lat="43.31803" lon="-0.51425">
        <ele>144.815796</ele>
        <time>2011-05-08T12:48:24Z</time>
      </trkpt>
      <trkpt lat="43.31776" lon="-0.51405">
        <ele>142.412476</ele>
        <time>2011-05-08T12:48:30Z</time>
      </trkpt>
      <trkpt lat="43.31712" lon="-0.51391">
        <ele>140.489868</ele>
        <time>2011-05-08T12:48:42Z</time>
      </trkpt>
      <trkpt lat="43.31693" lon="-0.51385">
        <ele>141.45105</ele>
        <time>2011-05-08T12:48:46Z</time>
      </trkpt>
      <trkpt lat="43.31649" lon="-0.51368">
        <ele>144.815796</ele>
        <time>2011-05-08T12:48:58Z</time>
      </trkpt>
      <trkpt lat="43.31616" lon="-0.51353">
        <ele>145.7771</ele>
        <time>2011-05-08T12:49:08Z</time>
      </trkpt>
      <trkpt lat="43.31581" lon="-0.51323">
        <ele>149.141602</ele>
        <time>2011-05-08T12:49:21Z</time>
      </trkpt>
      <trkpt lat="43.31557" lon="-0.51292">
        <ele>152.506348</ele>
        <time>2011-05-08T12:49:35Z</time>
      </trkpt>
      <trkpt lat="43.31538" lon="-0.51256">
        <ele>153.467651</ele>
        <time>2011-05-08T12:49:49Z</time>
      </trkpt>
      <trkpt lat="43.3153" lon="-0.51234">
        <ele>155.390259</ele>
        <time>2011-05-08T12:49:57Z</time>
      </trkpt>
      <trkpt lat="43.31508" lon="-0.51214">
        <ele>156.832153</ele>
        <time>2011-05-08T12:50:09Z</time>
      </trkpt>
      <trkpt lat="43.31454" lon="-0.51221">
        <ele>157.312866</ele>
        <time>2011-05-08T12:50:25Z</time>
      </trkpt>
      <trkpt lat="43.31406" lon="-0.51221">
        <ele>159.716187</ele>
        <time>2011-05-08T12:50:42Z</time>
      </trkpt>
      <trkpt lat="43.31361" lon="-0.51207">
        <ele>159.716187</ele>
        <time>2011-05-08T12:50:58Z</time>
      </trkpt>
      <trkpt lat="43.31295" lon="-0.51177">
        <ele>160.196899</ele>
        <time>2011-05-08T12:51:15Z</time>
      </trkpt>
      <trkpt lat="43.31276" lon="-0.51166">
        <ele>161.638916</ele>
        <time>2011-05-08T12:51:21Z</time>
      </trkpt>
      <trkpt lat="43.31237" lon="-0.51132">
        <ele>161.638916</ele>
        <time>2011-05-08T12:51:34Z</time>
      </trkpt>
      <trkpt lat="43.31205" lon="-0.51103">
        <ele>163.080811</ele>
        <time>2011-05-08T12:51:44Z</time>
      </trkpt>
      <trkpt lat="43.31173" lon="-0.51067">
        <ele>165.003418</ele>
        <time>2011-05-08T12:51:57Z</time>
      </trkpt>
      <trkpt lat="43.31147" lon="-0.51019">
        <ele>165.484131</ele>
        <time>2011-05-08T12:52:09Z</time>
      </trkpt>
      <trkpt lat="43.3111" lon="-0.50976">
        <ele>166.445312</ele>
        <time>2011-05-08T12:52:21Z</time>
      </trkpt>
      <trkpt lat="43.31069" lon="-0.50925">
        <ele>169.329468</ele>
        <time>2011-05-08T12:52:36Z</time>
      </trkpt>
      <trkpt lat="43.31045" lon="-0.50874">
        <ele>169.810059</ele>
        <time>2011-05-08T12:52:52Z</time>
      </trkpt>
      <trkpt lat="43.31043" lon="-0.50869">
        <ele>169.329468</ele>
        <time>2011-05-08T12:52:53Z</time>
      </trkpt>
      <trkpt lat="43.31027" lon="-0.50849">
        <ele>169.329468</ele>
        <time>2011-05-08T12:52:58Z</time>
      </trkpt>
      <trkpt lat="43.30973" lon="-0.50806">
        <ele>171.252075</ele>
        <time>2011-05-08T12:53:11Z</time>
      </trkpt>
      <trkpt lat="43.30928" lon="-0.50768">
        <ele>171.732666</ele>
        <time>2011-05-08T12:53:27Z</time>
      </trkpt>
      <trkpt lat="43.30876" lon="-0.50715">
        <ele>172.69397</ele>
        <time>2011-05-08T12:53:42Z</time>
      </trkpt>
      <trkpt lat="43.30835" lon="-0.50688">
        <ele>172.213257</ele>
        <time>2011-05-08T12:53:56Z</time>
      </trkpt>
      <trkpt lat="43.3081" lon="-0.50677">
        <ele>174.135864</ele>
        <time>2011-05-08T12:54:05Z</time>
      </trkpt>
      <trkpt lat="43.30772" lon="-0.50661">
        <ele>176.058594</ele>
        <time>2011-05-08T12:54:18Z</time>
      </trkpt>
      <trkpt lat="43.30741" lon="-0.50646">
        <ele>178.461914</ele>
        <time>2011-05-08T12:54:31Z</time>
      </trkpt>
      <trkpt lat="43.30726" lon="-0.50634">
        <ele>181.826416</ele>
        <time>2011-05-08T12:54:39Z</time>
      </trkpt>
      <trkpt lat="43.30699" lon="-0.50604">
        <ele>184.229858</ele>
        <time>2011-05-08T12:54:57Z</time>
      </trkpt>
      <trkpt lat="43.30676" lon="-0.50579">
        <ele>187.11377</ele>
        <time>2011-05-08T12:55:12Z</time>
      </trkpt>
      <trkpt lat="43.30655" lon="-0.50555">
        <ele>189.516968</ele>
        <time>2011-05-08T12:55:27Z</time>
      </trkpt>
      <trkpt lat="43.30633" lon="-0.50538">
        <ele>191.920288</ele>
        <time>2011-05-08T12:55:39Z</time>
      </trkpt>
      <trkpt lat="43.30603" lon="-0.5052">
        <ele>193.362305</ele>
        <time>2011-05-08T12:55:53Z</time>
      </trkpt>
      <trkpt lat="43.30577" lon="-0.50498">
        <ele>195.765625</ele>
        <time>2011-05-08T12:56:08Z</time>
      </trkpt>
      <trkpt lat="43.30551" lon="-0.50471">
        <ele>196.246338</ele>
        <time>2011-05-08T12:56:23Z</time>
      </trkpt>
      <trkpt lat="43.30526" lon="-0.50445">
        <ele>197.20752</ele>
        <time>2011-05-08T12:56:37Z</time>
      </trkpt>
      <trkpt lat="43.30493" lon="-0.50408">
        <ele>199.130127</ele>
        <time>2011-05-08T12:56:55Z</time>
      </trkpt>
      <trkpt lat="43.30472" lon="-0.50385">
        <ele>200.572266</ele>
        <time>2011-05-08T12:57:08Z</time>
      </trkpt>
      <trkpt lat="43.30441" lon="-0.50343">
        <ele>203.456177</ele>
        <time>2011-05-08T12:57:24Z</time>
      </trkpt>
      <trkpt lat="43.30433" lon="-0.50332">
        <ele>203.93689</ele>
        <time>2011-05-08T12:57:28Z</time>
      </trkpt>
      <trkpt lat="43.30399" lon="-0.50292">
        <ele>205.859497</ele>
        <time>2011-05-08T12:57:45Z</time>
      </trkpt>
      <trkpt lat="43.30369" lon="-0.50264">
        <ele>206.340088</ele>
        <time>2011-05-08T12:57:59Z</time>
      </trkpt>
      <trkpt lat="43.30375" lon="-0.50232">
        <ele>207.301392</ele>
        <time>2011-05-08T12:58:11Z</time>
      </trkpt>
      <trkpt lat="43.30392" lon="-0.50187">
        <ele>210.185425</ele>
        <time>2011-05-08T12:58:27Z</time>
      </trkpt>
      <trkpt lat="43.30399" lon="-0.50135">
        <ele>211.627441</ele>
        <time>2011-05-08T12:58:43Z</time>
      </trkpt>
      <trkpt lat="43.30401" lon="-0.50086">
        <ele>214.03064</ele>
        <time>2011-05-08T12:58:59Z</time>
      </trkpt>
      <trkpt lat="43.30402" lon="-0.50044">
        <ele>217.875977</ele>
        <time>2011-05-08T12:59:15Z</time>
      </trkpt>
      <trkpt lat="43.304" lon="-0.50015">
        <ele>219.317993</ele>
        <time>2011-05-08T12:59:26Z</time>
      </trkpt>
      <trkpt lat="43.30405" lon="-0.49972">
        <ele>221.721191</ele>
        <time>2011-05-08T12:59:44Z</time>
      </trkpt>
      <trkpt lat="43.30408" lon="-0.49966">
        <ele>221.721191</ele>
        <time>2011-05-08T12:59:47Z</time>
      </trkpt>
      <trkpt lat="43.304" lon="-0.49963">
        <ele>222.201782</ele>
        <time>2011-05-08T12:59:55Z</time>
      </trkpt>
      <trkpt lat="43.30399" lon="-0.49966">
        <ele>221.721191</ele>
        <time>2011-05-08T12:59:57Z</time>
      </trkpt>
      <trkpt lat="43.304" lon="-0.49973">
        <ele>221.721191</ele>
        <time>2011-05-08T13:00:11Z</time>
      </trkpt>
      <trkpt lat="43.304" lon="-0.49973">
        <ele>222.201782</ele>
        <time>2011-05-08T13:00:29Z</time>
      </trkpt>
      <trkpt lat="43.30402" lon="-0.50022">
        <ele>219.798584</ele>
        <time>2011-05-08T13:00:41Z</time>
      </trkpt>
      <trkpt lat="43.30403" lon="-0.50071">
        <ele>216.914673</ele>
        <time>2011-05-08T13:00:46Z</time>
      </trkpt>
      <trkpt lat="43.304" lon="-0.50115">
        <ele>215.472656</ele>
        <time>2011-05-08T13:00:50Z</time>
      </trkpt>
      <trkpt lat="43.30396" lon="-0.50162">
        <ele>213.069336</ele>
        <time>2011-05-08T13:00:54Z</time>
      </trkpt>
      <trkpt lat="43.30391" lon="-0.50184">
        <ele>211.627441</ele>
        <time>2011-05-08T13:00:56Z</time>
      </trkpt>
      <trkpt lat="43.30374" lon="-0.50226">
        <ele>209.224121</ele>
        <time>2011-05-08T13:01:00Z</time>
      </trkpt>
      <trkpt lat="43.30366" lon="-0.50253">
        <ele>207.782104</ele>
        <time>2011-05-08T13:01:03Z</time>
      </trkpt>
      <trkpt lat="43.30376" lon="-0.50275">
        <ele>205.378784</ele>
        <time>2011-05-08T13:01:07Z</time>
      </trkpt>
      <trkpt lat="43.3039" lon="-0.50287">
        <ele>204.41748</ele>
        <time>2011-05-08T13:01:10Z</time>
      </trkpt>
      <trkpt lat="43.30411" lon="-0.50313">
        <ele>205.378784</ele>
        <time>2011-05-08T13:01:15Z</time>
      </trkpt>
      <trkpt lat="43.30427" lon="-0.50328">
        <ele>203.93689</ele>
        <time>2011-05-08T13:01:18Z</time>
      </trkpt>
      <trkpt lat="43.30487" lon="-0.50405">
        <ele>202.014282</ele>
        <time>2011-05-08T13:01:31Z</time>
      </trkpt>
      <trkpt lat="43.30518" lon="-0.50438">
        <ele>198.649536</ele>
        <time>2011-05-08T13:01:37Z</time>
      </trkpt>
      <trkpt lat="43.30524" lon="-0.50445">
        <ele>199.130127</ele>
        <time>2011-05-08T13:01:38Z</time>
      </trkpt>
      <trkpt lat="43.30568" lon="-0.50491">
        <ele>195.765625</ele>
        <time>2011-05-08T13:01:46Z</time>
      </trkpt>
      <trkpt lat="43.30634" lon="-0.5054">
        <ele>192.881714</ele>
        <time>2011-05-08T13:01:57Z</time>
      </trkpt>
      <trkpt lat="43.30657" lon="-0.50561">
        <ele>191.920288</ele>
        <time>2011-05-08T13:02:01Z</time>
      </trkpt>
      <trkpt lat="43.30683" lon="-0.50589">
        <ele>190.478394</ele>
        <time>2011-05-08T13:02:05Z</time>
      </trkpt>
      <trkpt lat="43.30709" lon="-0.50619">
        <ele>186.633179</ele>
        <time>2011-05-08T13:02:09Z</time>
      </trkpt>
      <trkpt lat="43.30718" lon="-0.50631">
        <ele>183.268433</ele>
        <time>2011-05-08T13:02:11Z</time>
      </trkpt>
      <trkpt lat="43.30722" lon="-0.50636">
        <ele>182.307129</ele>
        <time>2011-05-08T13:02:12Z</time>
      </trkpt>
      <trkpt lat="43.30738" lon="-0.50652">
        <ele>180.384521</ele>
        <time>2011-05-08T13:02:15Z</time>
      </trkpt>
      <trkpt lat="43.30811" lon="-0.50681">
        <ele>177.02002</ele>
        <time>2011-05-08T13:02:24Z</time>
      </trkpt>
      <trkpt lat="43.3086" lon="-0.50701">
        <ele>175.577881</ele>
        <time>2011-05-08T13:02:31Z</time>
      </trkpt>
      <trkpt lat="43.3088" lon="-0.50719">
        <ele>174.135864</ele>
        <time>2011-05-08T13:02:35Z</time>
      </trkpt>
      <trkpt lat="43.30937" lon="-0.50778">
        <ele>172.213257</ele>
        <time>2011-05-08T13:02:47Z</time>
      </trkpt>
      <trkpt lat="43.30963" lon="-0.508">
        <ele>172.69397</ele>
        <time>2011-05-08T13:02:59Z</time>
      </trkpt>
      <trkpt lat="43.30983" lon="-0.50815">
        <ele>170.771362</ele>
        <time>2011-05-08T13:03:06Z</time>
      </trkpt>
      <trkpt lat="43.31022" lon="-0.50844">
        <ele>170.290649</ele>
        <time>2011-05-08T13:03:17Z</time>
      </trkpt>
      <trkpt lat="43.31037" lon="-0.50858">
        <ele>169.810059</ele>
        <time>2011-05-08T13:03:33Z</time>
      </trkpt>
      <trkpt lat="43.31051" lon="-0.50894">
        <ele>171.252075</ele>
        <time>2011-05-08T13:03:48Z</time>
      </trkpt>
      <trkpt lat="43.3108" lon="-0.50939">
        <ele>168.848755</ele>
        <time>2011-05-08T13:03:59Z</time>
      </trkpt>
      <trkpt lat="43.31126" lon="-0.5099">
        <ele>165.484131</ele>
        <time>2011-05-08T13:04:08Z</time>
      </trkpt>
      <trkpt lat="43.31164" lon="-0.5105">
        <ele>165.484131</ele>
        <time>2011-05-08T13:04:18Z</time>
      </trkpt>
      <trkpt lat="43.31176" lon="-0.51073">
        <ele>165.003418</ele>
        <time>2011-05-08T13:04:22Z</time>
      </trkpt>
      <trkpt lat="43.31188" lon="-0.5109">
        <ele>164.522705</ele>
        <time>2011-05-08T13:04:25Z</time>
      </trkpt>
      <trkpt lat="43.31232" lon="-0.51129">
        <ele>162.119507</ele>
        <time>2011-05-08T13:04:33Z</time>
      </trkpt>
      <trkpt lat="43.31242" lon="-0.51138">
        <ele>163.080811</ele>
        <time>2011-05-08T13:04:35Z</time>
      </trkpt>
      <trkpt lat="43.31275" lon="-0.51168">
        <ele>162.600098</ele>
        <time>2011-05-08T13:04:43Z</time>
      </trkpt>
      <trkpt lat="43.31297" lon="-0.51178">
        <ele>161.158203</ele>
        <time>2011-05-08T13:04:47Z</time>
      </trkpt>
      <trkpt lat="43.31368" lon="-0.51213">
        <ele>161.158203</ele>
        <time>2011-05-08T13:05:00Z</time>
      </trkpt>
      <trkpt lat="43.31449" lon="-0.51221">
        <ele>157.793579</ele>
        <time>2011-05-08T13:05:15Z</time>
      </trkpt>
      <trkpt lat="43.31497" lon="-0.51211">
        <ele>156.351562</ele>
        <time>2011-05-08T13:05:23Z</time>
      </trkpt>
      <trkpt lat="43.31517" lon="-0.51215">
        <ele>156.351562</ele>
        <time>2011-05-08T13:05:27Z</time>
      </trkpt>
      <trkpt lat="43.31541" lon="-0.51258">
        <ele>155.390259</ele>
        <time>2011-05-08T13:05:34Z</time>
      </trkpt>
      <trkpt lat="43.3156" lon="-0.51296">
        <ele>152.506348</ele>
        <time>2011-05-08T13:05:40Z</time>
      </trkpt>
      <trkpt lat="43.316" lon="-0.51342">
        <ele>148.18042</ele>
        <time>2011-05-08T13:05:47Z</time>
      </trkpt>
      <trkpt lat="43.31607" lon="-0.51347">
        <ele>148.18042</ele>
        <time>2011-05-08T13:05:48Z</time>
      </trkpt>
      <trkpt lat="43.31674" lon="-0.51379">
        <ele>144.335205</ele>
        <time>2011-05-08T13:05:57Z</time>
      </trkpt>
      <trkpt lat="43.31748" lon="-0.51399">
        <ele>141.45105</ele>
        <time>2011-05-08T13:06:07Z</time>
      </trkpt>
      <trkpt lat="43.3177" lon="-0.51405">
        <ele>142.412476</ele>
        <time>2011-05-08T13:06:12Z</time>
      </trkpt>
      <trkpt lat="43.31791" lon="-0.51419">
        <ele>143.85437</ele>
        <time>2011-05-08T13:06:17Z</time>
      </trkpt>
      <trkpt lat="43.31802" lon="-0.51427">
        <ele>145.296387</ele>
        <time>2011-05-08T13:06:20Z</time>
      </trkpt>
      <trkpt lat="43.31829" lon="-0.51442">
        <ele>145.7771</ele>
        <time>2011-05-08T13:06:32Z</time>
      </trkpt>
      <trkpt lat="43.31841" lon="-0.51442">
        <ele>144.815796</ele>
        <time>2011-05-08T13:06:37Z</time>
      </trkpt>
      <trkpt lat="43.31863" lon="-0.51428">
        <ele>142.893066</ele>
        <time>2011-05-08T13:06:42Z</time>
      </trkpt>
      <trkpt lat="43.31889" lon="-0.51392">
        <ele>143.373657</ele>
        <time>2011-05-08T13:06:54Z</time>
      </trkpt>
      <trkpt lat="43.31904" lon="-0.51368">
        <ele>142.412476</ele>
        <time>2011-05-08T13:07:02Z</time>
      </trkpt>
      <trkpt lat="43.3192" lon="-0.51387">
        <ele>140.009155</ele>
        <time>2011-05-08T13:07:07Z</time>
      </trkpt>
      <trkpt lat="43.31943" lon="-0.51415">
        <ele>139.528442</ele>
        <time>2011-05-08T13:07:13Z</time>
      </trkpt>
      <trkpt lat="43.31964" lon="-0.51422">
        <ele>139.047852</ele>
        <time>2011-05-08T13:07:17Z</time>
      </trkpt>
      <trkpt lat="43.31981" lon="-0.51434">
        <ele>139.528442</ele>
        <time>2011-05-08T13:07:21Z</time>
      </trkpt>
      <trkpt lat="43.32009" lon="-0.51444">
        <ele>141.45105</ele>
        <time>2011-05-08T13:07:28Z</time>
      </trkpt>
      <trkpt lat="43.32028" lon="-0.51455">
        <ele>142.893066</ele>
        <time>2011-05-08T13:07:34Z</time>
      </trkpt>
      <trkpt lat="43.32048" lon="-0.51496">
        <ele>142.412476</ele>
        <time>2011-05-08T13:07:47Z</time>
      </trkpt>
      <trkpt lat="43.32054" lon="-0.51504">
        <ele>142.412476</ele>
        <time>2011-05-08T13:07:49Z</time>
      </trkpt>
      <trkpt lat="43.32109" lon="-0.51557">
        <ele>140.970459</ele>
        <time>2011-05-08T13:08:03Z</time>
      </trkpt>
      <trkpt lat="43.32147" lon="-0.51591">
        <ele>138.567261</ele>
        <time>2011-05-08T13:08:10Z</time>
      </trkpt>
      <trkpt lat="43.32223" lon="-0.51664">
        <ele>138.086548</ele>
        <time>2011-05-08T13:08:24Z</time>
      </trkpt>
      <trkpt lat="43.32247" lon="-0.51693">
        <ele>137.125244</ele>
        <time>2011-05-08T13:08:29Z</time>
      </trkpt>
      <trkpt lat="43.3227" lon="-0.51733">
        <ele>135.202515</ele>
        <time>2011-05-08T13:08:35Z</time>
      </trkpt>
      <trkpt lat="43.32307" lon="-0.51797">
        <ele>133.279907</ele>
        <time>2011-05-08T13:08:44Z</time>
      </trkpt>
      <trkpt lat="43.32386" lon="-0.51872">
        <ele>134.241211</ele>
        <time>2011-05-08T13:08:59Z</time>
      </trkpt>
      <trkpt lat="43.32391" lon="-0.51875">
        <ele>134.241211</ele>
        <time>2011-05-08T13:09:00Z</time>
      </trkpt>
      <trkpt lat="43.32404" lon="-0.51886">
        <ele>135.683105</ele>
        <time>2011-05-08T13:09:03Z</time>
      </trkpt>
      <trkpt lat="43.32451" lon="-0.51927">
        <ele>137.605835</ele>
        <time>2011-05-08T13:09:15Z</time>
      </trkpt>
      <trkpt lat="43.325" lon="-0.51964">
        <ele>138.086548</ele>
        <time>2011-05-08T13:09:28Z</time>
      </trkpt>
      <trkpt lat="43.3253" lon="-0.51988">
        <ele>137.605835</ele>
        <time>2011-05-08T13:09:36Z</time>
      </trkpt>
      <trkpt lat="43.32542" lon="-0.52">
        <ele>137.125244</ele>
        <time>2011-05-08T13:09:39Z</time>
      </trkpt>
      <trkpt lat="43.32579" lon="-0.52065">
        <ele>134.241211</ele>
        <time>2011-05-08T13:09:49Z</time>
      </trkpt>
      <trkpt lat="43.32622" lon="-0.52134">
        <ele>133.760498</ele>
        <time>2011-05-08T13:09:59Z</time>
      </trkpt>
      <trkpt lat="43.32701" lon="-0.52219">
        <ele>132.799316</ele>
        <time>2011-05-08T13:10:15Z</time>
      </trkpt>
      <trkpt lat="43.32753" lon="-0.52251">
        <ele>132.318604</ele>
        <time>2011-05-08T13:10:24Z</time>
      </trkpt>
      <trkpt lat="43.32783" lon="-0.52269">
        <ele>132.799316</ele>
        <time>2011-05-08T13:10:29Z</time>
      </trkpt>
      <trkpt lat="43.32803" lon="-0.52281">
        <ele>133.760498</ele>
        <time>2011-05-08T13:10:33Z</time>
      </trkpt>
      <trkpt lat="43.32812" lon="-0.52286">
        <ele>134.241211</ele>
        <time>2011-05-08T13:10:35Z</time>
      </trkpt>
      <trkpt lat="43.32842" lon="-0.52288">
        <ele>135.683105</ele>
        <time>2011-05-08T13:10:42Z</time>
      </trkpt>
      <trkpt lat="43.32899" lon="-0.52287">
        <ele>138.086548</ele>
        <time>2011-05-08T13:10:56Z</time>
      </trkpt>
      <trkpt lat="43.32921" lon="-0.52293">
        <ele>139.047852</ele>
        <time>2011-05-08T13:11:02Z</time>
      </trkpt>
      <trkpt lat="43.32931" lon="-0.52306">
        <ele>139.528442</ele>
        <time>2011-05-08T13:11:06Z</time>
      </trkpt>
      <trkpt lat="43.32944" lon="-0.52353">
        <ele>140.489868</ele>
        <time>2011-05-08T13:11:18Z</time>
      </trkpt>
      <trkpt lat="43.32949" lon="-0.52382">
        <ele>139.047852</ele>
        <time>2011-05-08T13:11:24Z</time>
      </trkpt>
      <trkpt lat="43.32973" lon="-0.52484">
        <ele>138.086548</ele>
        <time>2011-05-08T13:11:40Z</time>
      </trkpt>
      <trkpt lat="43.3302" lon="-0.52596">
        <ele>136.644653</ele>
        <time>2011-05-08T13:11:56Z</time>
      </trkpt>
      <trkpt lat="43.3303" lon="-0.5262">
        <ele>134.721924</ele>
        <time>2011-05-08T13:11:59Z</time>
      </trkpt>
      <trkpt lat="43.33047" lon="-0.5266">
        <ele>133.760498</ele>
        <time>2011-05-08T13:12:04Z</time>
      </trkpt>
      <trkpt lat="43.33052" lon="-0.52676">
        <ele>133.279907</ele>
        <time>2011-05-08T13:12:06Z</time>
      </trkpt>
      <trkpt lat="43.33056" lon="-0.52697">
        <ele>134.241211</ele>
        <time>2011-05-08T13:12:09Z</time>
      </trkpt>
      <trkpt lat="43.33072" lon="-0.5275">
        <ele>134.241211</ele>
        <time>2011-05-08T13:12:16Z</time>
      </trkpt>
      <trkpt lat="43.33078" lon="-0.52764">
        <ele>134.721924</ele>
        <time>2011-05-08T13:12:18Z</time>
      </trkpt>
      <trkpt lat="43.33099" lon="-0.52804">
        <ele>134.721924</ele>
        <time>2011-05-08T13:12:24Z</time>
      </trkpt>
      <trkpt lat="43.33157" lon="-0.52887">
        <ele>134.721924</ele>
        <time>2011-05-08T13:12:39Z</time>
      </trkpt>
      <trkpt lat="43.33193" lon="-0.52939">
        <ele>134.721924</ele>
        <time>2011-05-08T13:12:48Z</time>
      </trkpt>
      <trkpt lat="43.33258" lon="-0.52998">
        <ele>134.241211</ele>
        <time>2011-05-08T13:13:02Z</time>
      </trkpt>
      <trkpt lat="43.33282" lon="-0.53022">
        <ele>135.683105</ele>
        <time>2011-05-08T13:13:08Z</time>
      </trkpt>
      <trkpt lat="43.33296" lon="-0.53047">
        <ele>137.125244</ele>
        <time>2011-05-08T13:13:14Z</time>
      </trkpt>
      <trkpt lat="43.33308" lon="-0.53084">
        <ele>136.644653</ele>
        <time>2011-05-08T13:13:21Z</time>
      </trkpt>
      <trkpt lat="43.33335" lon="-0.53183">
        <ele>135.202515</ele>
        <time>2011-05-08T13:13:36Z</time>
      </trkpt>
      <trkpt lat="43.3337" lon="-0.53211">
        <ele>136.16394</ele>
        <time>2011-05-08T13:13:44Z</time>
      </trkpt>
      <trkpt lat="43.33439" lon="-0.53192">
        <ele>133.279907</ele>
        <time>2011-05-08T13:13:57Z</time>
      </trkpt>
      <trkpt lat="43.33474" lon="-0.532">
        <ele>133.279907</ele>
        <time>2011-05-08T13:14:07Z</time>
      </trkpt>
      <trkpt lat="43.3347" lon="-0.53217">
        <ele>132.799316</ele>
        <time>2011-05-08T13:14:12Z</time>
      </trkpt>
      <trkpt lat="43.33435" lon="-0.53264">
        <ele>131.837891</ele>
        <time>2011-05-08T13:14:28Z</time>
      </trkpt>
      <trkpt lat="43.33369" lon="-0.53348">
        <ele>129.434692</ele>
        <time>2011-05-08T13:14:47Z</time>
      </trkpt>
      <trkpt lat="43.33358" lon="-0.53362">
        <ele>128.954102</ele>
        <time>2011-05-08T13:14:50Z</time>
      </trkpt>
      <trkpt lat="43.33363" lon="-0.53398">
        <ele>128.473389</ele>
        <time>2011-05-08T13:14:56Z</time>
      </trkpt>
      <trkpt lat="43.3337" lon="-0.53413">
        <ele>128.473389</ele>
        <time>2011-05-08T13:14:59Z</time>
      </trkpt>
      <trkpt lat="43.33383" lon="-0.5343">
        <ele>127.992554</ele>
        <time>2011-05-08T13:15:03Z</time>
      </trkpt>
      <trkpt lat="43.33452" lon="-0.53476">
        <ele>127.031372</ele>
        <time>2011-05-08T13:15:17Z</time>
      </trkpt>
      <trkpt lat="43.3355" lon="-0.53513">
        <ele>126.069946</ele>
        <time>2011-05-08T13:15:34Z</time>
      </trkpt>
      <trkpt lat="43.33595" lon="-0.53525">
        <ele>126.069946</ele>
        <time>2011-05-08T13:15:42Z</time>
      </trkpt>
      <trkpt lat="43.33636" lon="-0.53563">
        <ele>126.069946</ele>
        <time>2011-05-08T13:15:51Z</time>
      </trkpt>
      <trkpt lat="43.33692" lon="-0.53658">
        <ele>125.589355</ele>
        <time>2011-05-08T13:16:07Z</time>
      </trkpt>
      <trkpt lat="43.33772" lon="-0.53773">
        <ele>125.589355</ele>
        <time>2011-05-08T13:16:27Z</time>
      </trkpt>
      <trkpt lat="43.33783" lon="-0.53795">
        <ele>126.069946</ele>
        <time>2011-05-08T13:16:31Z</time>
      </trkpt>
      <trkpt lat="43.3379" lon="-0.53811">
        <ele>126.550659</ele>
        <time>2011-05-08T13:16:34Z</time>
      </trkpt>
      <trkpt lat="43.338" lon="-0.53832">
        <ele>127.031372</ele>
        <time>2011-05-08T13:16:38Z</time>
      </trkpt>
      <trkpt lat="43.33814" lon="-0.5385">
        <ele>126.069946</ele>
        <time>2011-05-08T13:16:42Z</time>
      </trkpt>
      <trkpt lat="43.33829" lon="-0.53869">
        <ele>125.108765</ele>
        <time>2011-05-08T13:16:46Z</time>
      </trkpt>
      <trkpt lat="43.33856" lon="-0.53892">
        <ele>124.628052</ele>
        <time>2011-05-08T13:16:51Z</time>
      </trkpt>
      <trkpt lat="43.3388" lon="-0.53905">
        <ele>125.108765</ele>
        <time>2011-05-08T13:16:55Z</time>
      </trkpt>
      <trkpt lat="43.33964" lon="-0.53962">
        <ele>127.031372</ele>
        <time>2011-05-08T13:17:12Z</time>
      </trkpt>
      <trkpt lat="43.34003" lon="-0.53993">
        <ele>126.550659</ele>
        <time>2011-05-08T13:17:21Z</time>
      </trkpt>
      <trkpt lat="43.34038" lon="-0.54031">
        <ele>127.992554</ele>
        <time>2011-05-08T13:17:31Z</time>
      </trkpt>
      <trkpt lat="43.34089" lon="-0.54107">
        <ele>127.511963</ele>
        <time>2011-05-08T13:17:46Z</time>
      </trkpt>
      <trkpt lat="43.34138" lon="-0.54169">
        <ele>125.108765</ele>
        <time>2011-05-08T13:17:58Z</time>
      </trkpt>
      <trkpt lat="43.34153" lon="-0.54185">
        <ele>124.628052</ele>
        <time>2011-05-08T13:18:01Z</time>
      </trkpt>
      <trkpt lat="43.34225" lon="-0.54227">
        <ele>123.186157</ele>
        <time>2011-05-08T13:18:13Z</time>
      </trkpt>
      <trkpt lat="43.34235" lon="-0.54234">
        <ele>123.186157</ele>
        <time>2011-05-08T13:18:15Z</time>
      </trkpt>
      <trkpt lat="43.34258" lon="-0.54259">
        <ele>123.186157</ele>
        <time>2011-05-08T13:18:20Z</time>
      </trkpt>
      <trkpt lat="43.34272" lon="-0.54284">
        <ele>124.628052</ele>
        <time>2011-05-08T13:18:24Z</time>
      </trkpt>
      <trkpt lat="43.34283" lon="-0.54306">
        <ele>125.589355</ele>
        <time>2011-05-08T13:18:28Z</time>
      </trkpt>
      <trkpt lat="43.34321" lon="-0.54407">
        <ele>124.628052</ele>
        <time>2011-05-08T13:18:43Z</time>
      </trkpt>
      <trkpt lat="43.34323" lon="-0.54414">
        <ele>124.147339</ele>
        <time>2011-05-08T13:18:44Z</time>
      </trkpt>
      <trkpt lat="43.34379" lon="-0.54484">
        <ele>124.147339</ele>
        <time>2011-05-08T13:18:57Z</time>
      </trkpt>
      <trkpt lat="43.34407" lon="-0.54503">
        <ele>125.108765</ele>
        <time>2011-05-08T13:19:03Z</time>
      </trkpt>
      <trkpt lat="43.34423" lon="-0.54507">
        <ele>125.108765</ele>
        <time>2011-05-08T13:19:06Z</time>
      </trkpt>
      <trkpt lat="43.34455" lon="-0.54514">
        <ele>124.628052</ele>
        <time>2011-05-08T13:19:12Z</time>
      </trkpt>
      <trkpt lat="43.34506" lon="-0.54547">
        <ele>125.589355</ele>
        <time>2011-05-08T13:19:24Z</time>
      </trkpt>
      <trkpt lat="43.34528" lon="-0.54557">
        <ele>126.069946</ele>
        <time>2011-05-08T13:19:30Z</time>
      </trkpt>
      <trkpt lat="43.34547" lon="-0.54548">
        <ele>126.069946</ele>
        <time>2011-05-08T13:19:34Z</time>
      </trkpt>
      <trkpt lat="43.34584" lon="-0.54571">
        <ele>126.069946</ele>
        <time>2011-05-08T13:19:44Z</time>
      </trkpt>
      <trkpt lat="43.34586" lon="-0.54577">
        <ele>126.550659</ele>
        <time>2011-05-08T13:19:45Z</time>
      </trkpt>
      <trkpt lat="43.34613" lon="-0.5466">
        <ele>128.473389</ele>
        <time>2011-05-08T13:20:01Z</time>
      </trkpt>
      <trkpt lat="43.34645" lon="-0.54671">
        <ele>130.395996</ele>
        <time>2011-05-08T13:20:11Z</time>
      </trkpt>
      <trkpt lat="43.34674" lon="-0.54692">
        <ele>128.954102</ele>
        <time>2011-05-08T13:20:20Z</time>
      </trkpt>
      <trkpt lat="43.34722" lon="-0.54729">
        <ele>128.954102</ele>
        <time>2011-05-08T13:20:32Z</time>
      </trkpt>
      <trkpt lat="43.34771" lon="-0.54785">
        <ele>127.511963</ele>
        <time>2011-05-08T13:20:46Z</time>
      </trkpt>
      <trkpt lat="43.34786" lon="-0.54804">
        <ele>126.069946</ele>
        <time>2011-05-08T13:20:49Z</time>
      </trkpt>
      <trkpt lat="43.34838" lon="-0.54876">
        <ele>125.589355</ele>
        <time>2011-05-08T13:21:01Z</time>
      </trkpt>
      <trkpt lat="43.34859" lon="-0.54892">
        <ele>126.069946</ele>
        <time>2011-05-08T13:21:06Z</time>
      </trkpt>
      <trkpt lat="43.3492" lon="-0.54914">
        <ele>126.550659</ele>
        <time>2011-05-08T13:21:21Z</time>
      </trkpt>
      <trkpt lat="43.34931" lon="-0.54923">
        <ele>127.031372</ele>
        <time>2011-05-08T13:21:24Z</time>
      </trkpt>
      <trkpt lat="43.34966" lon="-0.54983">
        <ele>125.108765</ele>
        <time>2011-05-08T13:21:34Z</time>
      </trkpt>
      <trkpt lat="43.35026" lon="-0.55063">
        <ele>124.628052</ele>
        <time>2011-05-08T13:21:49Z</time>
      </trkpt>
      <trkpt lat="43.35058" lon="-0.55087">
        <ele>124.628052</ele>
        <time>2011-05-08T13:21:56Z</time>
      </trkpt>
      <trkpt lat="43.3513" lon="-0.55119">
        <ele>125.589355</ele>
        <time>2011-05-08T13:22:12Z</time>
      </trkpt>
      <trkpt lat="43.35143" lon="-0.55126">
        <ele>125.108765</ele>
        <time>2011-05-08T13:22:15Z</time>
      </trkpt>
      <trkpt lat="43.35156" lon="-0.55134">
        <ele>125.108765</ele>
        <time>2011-05-08T13:22:18Z</time>
      </trkpt>
      <trkpt lat="43.35177" lon="-0.55165">
        <ele>124.147339</ele>
        <time>2011-05-08T13:22:25Z</time>
      </trkpt>
      <trkpt lat="43.35182" lon="-0.55175">
        <ele>124.628052</ele>
        <time>2011-05-08T13:22:27Z</time>
      </trkpt>
      <trkpt lat="43.35208" lon="-0.55216">
        <ele>123.666748</ele>
        <time>2011-05-08T13:22:35Z</time>
      </trkpt>
      <trkpt lat="43.35215" lon="-0.5524">
        <ele>122.224731</ele>
        <time>2011-05-08T13:22:39Z</time>
      </trkpt>
      <trkpt lat="43.35219" lon="-0.5529">
        <ele>122.224731</ele>
        <time>2011-05-08T13:22:47Z</time>
      </trkpt>
      <trkpt lat="43.3522" lon="-0.55303">
        <ele>121.26355</ele>
        <time>2011-05-08T13:22:49Z</time>
      </trkpt>
      <trkpt lat="43.35224" lon="-0.55344">
        <ele>120.302124</ele>
        <time>2011-05-08T13:22:55Z</time>
      </trkpt>
      <trkpt lat="43.35218" lon="-0.55377">
        <ele>118.379395</ele>
        <time>2011-05-08T13:23:01Z</time>
      </trkpt>
      <trkpt lat="43.35214" lon="-0.55379">
        <ele>118.379395</ele>
        <time>2011-05-08T13:23:02Z</time>
      </trkpt>
      <trkpt lat="43.35195" lon="-0.55383">
        <ele>117.898804</ele>
        <time>2011-05-08T13:23:06Z</time>
      </trkpt>
      <trkpt lat="43.35141" lon="-0.55347">
        <ele>118.379395</ele>
        <time>2011-05-08T13:23:19Z</time>
      </trkpt>
      <trkpt lat="43.35069" lon="-0.55274">
        <ele>118.860107</ele>
        <time>2011-05-08T13:23:36Z</time>
      </trkpt>
      <trkpt lat="43.35043" lon="-0.55282">
        <ele>119.34082</ele>
        <time>2011-05-08T13:23:43Z</time>
      </trkpt>
      <trkpt lat="43.34997" lon="-0.55404">
        <ele>118.379395</ele>
        <time>2011-05-08T13:24:03Z</time>
      </trkpt>
      <trkpt lat="43.34977" lon="-0.55456">
        <ele>117.418213</ele>
        <time>2011-05-08T13:24:12Z</time>
      </trkpt>
      <trkpt lat="43.34979" lon="-0.55481">
        <ele>118.379395</ele>
        <time>2011-05-08T13:24:16Z</time>
      </trkpt>
      <trkpt lat="43.35" lon="-0.55559">
        <ele>117.898804</ele>
        <time>2011-05-08T13:24:28Z</time>
      </trkpt>
      <trkpt lat="43.34996" lon="-0.55592">
        <ele>117.898804</ele>
        <time>2011-05-08T13:24:33Z</time>
      </trkpt>
      <trkpt lat="43.34968" lon="-0.55638">
        <ele>117.898804</ele>
        <time>2011-05-08T13:24:42Z</time>
      </trkpt>
      <trkpt lat="43.34965" lon="-0.55669">
        <ele>117.418213</ele>
        <time>2011-05-08T13:24:47Z</time>
      </trkpt>
      <trkpt lat="43.35013" lon="-0.55805">
        <ele>117.898804</ele>
        <time>2011-05-08T13:25:08Z</time>
      </trkpt>
      <trkpt lat="43.35056" lon="-0.55937">
        <ele>118.379395</ele>
        <time>2011-05-08T13:25:28Z</time>
      </trkpt>
      <trkpt lat="43.35072" lon="-0.55984">
        <ele>116.9375</ele>
        <time>2011-05-08T13:25:35Z</time>
      </trkpt>
      <trkpt lat="43.35114" lon="-0.56108">
        <ele>117.418213</ele>
        <time>2011-05-08T13:25:54Z</time>
      </trkpt>
      <trkpt lat="43.35119" lon="-0.56199">
        <ele>116.9375</ele>
        <time>2011-05-08T13:26:07Z</time>
      </trkpt>
      <trkpt lat="43.35115" lon="-0.56343">
        <ele>117.418213</ele>
        <time>2011-05-08T13:26:27Z</time>
      </trkpt>
      <trkpt lat="43.35113" lon="-0.5638">
        <ele>117.418213</ele>
        <time>2011-05-08T13:26:33Z</time>
      </trkpt>
      <trkpt lat="43.3512" lon="-0.56401">
        <ele>117.898804</ele>
        <time>2011-05-08T13:26:37Z</time>
      </trkpt>
      <trkpt lat="43.3514" lon="-0.5645">
        <ele>118.379395</ele>
        <time>2011-05-08T13:26:48Z</time>
      </trkpt>
      <trkpt lat="43.35199" lon="-0.56468">
        <ele>117.418213</ele>
        <time>2011-05-08T13:27:03Z</time>
      </trkpt>
      <trkpt lat="43.35209" lon="-0.5647">
        <ele>117.898804</ele>
        <time>2011-05-08T13:27:05Z</time>
      </trkpt>
      <trkpt lat="43.35294" lon="-0.5648">
        <ele>116.9375</ele>
        <time>2011-05-08T13:27:23Z</time>
      </trkpt>
      <trkpt lat="43.35348" lon="-0.56477">
        <ele>117.898804</ele>
        <time>2011-05-08T13:27:34Z</time>
      </trkpt>
      <trkpt lat="43.35413" lon="-0.56481">
        <ele>117.418213</ele>
        <time>2011-05-08T13:27:47Z</time>
      </trkpt>
      <trkpt lat="43.35463" lon="-0.56498">
        <ele>116.456787</ele>
        <time>2011-05-08T13:28:02Z</time>
      </trkpt>
      <trkpt lat="43.35475" lon="-0.56583">
        <ele>116.456787</ele>
        <time>2011-05-08T13:28:17Z</time>
      </trkpt>
      <trkpt lat="43.35478" lon="-0.56594">
        <ele>116.9375</ele>
        <time>2011-05-08T13:28:19Z</time>
      </trkpt>
      <trkpt lat="43.35498" lon="-0.56647">
        <ele>116.9375</ele>
        <time>2011-05-08T13:28:28Z</time>
      </trkpt>
      <trkpt lat="43.35506" lon="-0.56672">
        <ele>116.456787</ele>
        <time>2011-05-08T13:28:32Z</time>
      </trkpt>
      <trkpt lat="43.3551" lon="-0.56699">
        <ele>116.456787</ele>
        <time>2011-05-08T13:28:36Z</time>
      </trkpt>
      <trkpt lat="43.35521" lon="-0.56819">
        <ele>116.9375</ele>
        <time>2011-05-08T13:28:54Z</time>
      </trkpt>
      <trkpt lat="43.35538" lon="-0.56855">
        <ele>116.9375</ele>
        <time>2011-05-08T13:29:04Z</time>
      </trkpt>
      <trkpt lat="43.35545" lon="-0.56853">
        <ele>116.9375</ele>
        <time>2011-05-08T13:29:06Z</time>
      </trkpt>
      <trkpt lat="43.35623" lon="-0.56802">
        <ele>116.9375</ele>
        <time>2011-05-08T13:29:24Z</time>
      </trkpt>
      <trkpt lat="43.35709" lon="-0.56742">
        <ele>115.495605</ele>
        <time>2011-05-08T13:29:45Z</time>
      </trkpt>
      <trkpt lat="43.35713" lon="-0.56756">
        <ele>116.456787</ele>
        <time>2011-05-08T13:29:50Z</time>
      </trkpt>
      <trkpt lat="43.35708" lon="-0.56788">
        <ele>117.418213</ele>
        <time>2011-05-08T13:29:57Z</time>
      </trkpt>
      <trkpt lat="43.35684" lon="-0.56901">
        <ele>116.9375</ele>
        <time>2011-05-08T13:30:15Z</time>
      </trkpt>
      <trkpt lat="43.35666" lon="-0.57032">
        <ele>115.976196</ele>
        <time>2011-05-08T13:30:34Z</time>
      </trkpt>
      <trkpt lat="43.35679" lon="-0.57153">
        <ele>115.976196</ele>
        <time>2011-05-08T13:30:51Z</time>
      </trkpt>
      <trkpt lat="43.35735" lon="-0.5731">
        <ele>115.014893</ele>
        <time>2011-05-08T13:31:15Z</time>
      </trkpt>
      <trkpt lat="43.35756" lon="-0.57414">
        <ele>115.014893</ele>
        <time>2011-05-08T13:31:30Z</time>
      </trkpt>
      <trkpt lat="43.35792" lon="-0.57511">
        <ele>114.053589</ele>
        <time>2011-05-08T13:31:45Z</time>
      </trkpt>
      <trkpt lat="43.35803" lon="-0.5756">
        <ele>114.53418</ele>
        <time>2011-05-08T13:31:52Z</time>
      </trkpt>
      <trkpt lat="43.35807" lon="-0.57606">
        <ele>115.495605</ele>
        <time>2011-05-08T13:32:00Z</time>
      </trkpt>
      <trkpt lat="43.35801" lon="-0.57645">
        <ele>115.014893</ele>
        <time>2011-05-08T13:32:10Z</time>
      </trkpt>
      <trkpt lat="43.35774" lon="-0.57737">
        <ele>114.53418</ele>
        <time>2011-05-08T13:32:26Z</time>
      </trkpt>
      <trkpt lat="43.35747" lon="-0.57829">
        <ele>115.014893</ele>
        <time>2011-05-08T13:32:43Z</time>
      </trkpt>
      <trkpt lat="43.35716" lon="-0.57945">
        <ele>114.053589</ele>
        <time>2011-05-08T13:33:02Z</time>
      </trkpt>
      <trkpt lat="43.35678" lon="-0.58087">
        <ele>114.53418</ele>
        <time>2011-05-08T13:33:22Z</time>
      </trkpt>
      <trkpt lat="43.35656" lon="-0.58169">
        <ele>114.53418</ele>
        <time>2011-05-08T13:33:33Z</time>
      </trkpt>
      <trkpt lat="43.35653" lon="-0.58205">
        <ele>114.053589</ele>
        <time>2011-05-08T13:33:38Z</time>
      </trkpt>
      <trkpt lat="43.35659" lon="-0.58289">
        <ele>114.053589</ele>
        <time>2011-05-08T13:33:52Z</time>
      </trkpt>
      <trkpt lat="43.35657" lon="-0.58299">
        <ele>113.572998</ele>
        <time>2011-05-08T13:33:54Z</time>
      </trkpt>
      <trkpt lat="43.35641" lon="-0.58302">
        <ele>112.611572</ele>
        <time>2011-05-08T13:33:59Z</time>
      </trkpt>
      <trkpt lat="43.35618" lon="-0.58326">
        <ele>113.092285</ele>
        <time>2011-05-08T13:34:11Z</time>
      </trkpt>
      <trkpt lat="43.3561" lon="-0.58381">
        <ele>113.572998</ele>
        <time>2011-05-08T13:34:22Z</time>
      </trkpt>
      <trkpt lat="43.35602" lon="-0.58444">
        <ele>113.572998</ele>
        <time>2011-05-08T13:34:35Z</time>
      </trkpt>
      <trkpt lat="43.35581" lon="-0.58498">
        <ele>115.014893</ele>
        <time>2011-05-08T13:34:47Z</time>
      </trkpt>
      <trkpt lat="43.35575" lon="-0.58506">
        <ele>113.572998</ele>
        <time>2011-05-08T13:34:49Z</time>
      </trkpt>
      <trkpt lat="43.35564" lon="-0.58536">
        <ele>114.53418</ele>
        <time>2011-05-08T13:34:54Z</time>
      </trkpt>
      <trkpt lat="43.35561" lon="-0.58607">
        <ele>114.053589</ele>
        <time>2011-05-08T13:35:07Z</time>
      </trkpt>
      <trkpt lat="43.35567" lon="-0.58644">
        <ele>113.572998</ele>
        <time>2011-05-08T13:35:14Z</time>
      </trkpt>
      <trkpt lat="43.35576" lon="-0.58707">
        <ele>113.092285</ele>
        <time>2011-05-08T13:35:27Z</time>
      </trkpt>
      <trkpt lat="43.35578" lon="-0.58776">
        <ele>113.572998</ele>
        <time>2011-05-08T13:35:41Z</time>
      </trkpt>
      <trkpt lat="43.35597" lon="-0.58821">
        <ele>114.053589</ele>
        <time>2011-05-08T13:35:51Z</time>
      </trkpt>
      <trkpt lat="43.35606" lon="-0.58868">
        <ele>113.572998</ele>
        <time>2011-05-08T13:36:01Z</time>
      </trkpt>
      <trkpt lat="43.35639" lon="-0.58884">
        <ele>114.053589</ele>
        <time>2011-05-08T13:36:11Z</time>
      </trkpt>
      <trkpt lat="43.35675" lon="-0.58904">
        <ele>113.092285</ele>
        <time>2011-05-08T13:36:22Z</time>
      </trkpt>
      <trkpt lat="43.35717" lon="-0.58927">
        <ele>112.611572</ele>
        <time>2011-05-08T13:36:33Z</time>
      </trkpt>
      <trkpt lat="43.35749" lon="-0.58957">
        <ele>113.092285</ele>
        <time>2011-05-08T13:36:44Z</time>
      </trkpt>
      <trkpt lat="43.35753" lon="-0.59019">
        <ele>112.611572</ele>
        <time>2011-05-08T13:36:56Z</time>
      </trkpt>
      <trkpt lat="43.35756" lon="-0.59073">
        <ele>113.092285</ele>
        <time>2011-05-08T13:37:06Z</time>
      </trkpt>
      <trkpt lat="43.35764" lon="-0.59099">
        <ele>112.611572</ele>
        <time>2011-05-08T13:37:11Z</time>
      </trkpt>
      <trkpt lat="43.35793" lon="-0.59124">
        <ele>112.130981</ele>
        <time>2011-05-08T13:37:20Z</time>
      </trkpt>
      <trkpt lat="43.35802" lon="-0.59134">
        <ele>113.092285</ele>
        <time>2011-05-08T13:37:23Z</time>
      </trkpt>
      <trkpt lat="43.35808" lon="-0.59141">
        <ele>112.611572</ele>
        <time>2011-05-08T13:37:25Z</time>
      </trkpt>
      <trkpt lat="43.35811" lon="-0.59165">
        <ele>112.130981</ele>
        <time>2011-05-08T13:37:30Z</time>
      </trkpt>
      <trkpt lat="43.35807" lon="-0.59218">
        <ele>112.611572</ele>
        <time>2011-05-08T13:37:43Z</time>
      </trkpt>
      <trkpt lat="43.35809" lon="-0.59257">
        <ele>113.092285</ele>
        <time>2011-05-08T13:37:50Z</time>
      </trkpt>
      <trkpt lat="43.3581" lon="-0.59276">
        <ele>113.092285</ele>
        <time>2011-05-08T13:37:53Z</time>
      </trkpt>
      <trkpt lat="43.35815" lon="-0.59341">
        <ele>113.572998</ele>
        <time>2011-05-08T13:38:06Z</time>
      </trkpt>
      <trkpt lat="43.35829" lon="-0.5935">
        <ele>112.611572</ele>
        <time>2011-05-08T13:38:10Z</time>
      </trkpt>
      <trkpt lat="43.35871" lon="-0.59383">
        <ele>111.650269</ele>
        <time>2011-05-08T13:38:22Z</time>
      </trkpt>
      <trkpt lat="43.35876" lon="-0.59406">
        <ele>113.092285</ele>
        <time>2011-05-08T13:38:27Z</time>
      </trkpt>
      <trkpt lat="43.35904" lon="-0.59442">
        <ele>112.611572</ele>
        <time>2011-05-08T13:38:38Z</time>
      </trkpt>
      <trkpt lat="43.35942" lon="-0.59476">
        <ele>112.611572</ele>
        <time>2011-05-08T13:38:50Z</time>
      </trkpt>
      <trkpt lat="43.35974" lon="-0.59514">
        <ele>113.092285</ele>
        <time>2011-05-08T13:39:01Z</time>
      </trkpt>
      <trkpt lat="43.35987" lon="-0.59522">
        <ele>112.130981</ele>
        <time>2011-05-08T13:39:05Z</time>
      </trkpt>
      <trkpt lat="43.36002" lon="-0.5952">
        <ele>113.092285</ele>
        <time>2011-05-08T13:39:09Z</time>
      </trkpt>
      <trkpt lat="43.36008" lon="-0.59528">
        <ele>113.572998</ele>
        <time>2011-05-08T13:39:13Z</time>
      </trkpt>
      <trkpt lat="43.36006" lon="-0.59601">
        <ele>112.130981</ele>
        <time>2011-05-08T13:39:26Z</time>
      </trkpt>
      <trkpt lat="43.36" lon="-0.59624">
        <ele>112.130981</ele>
        <time>2011-05-08T13:39:30Z</time>
      </trkpt>
      <trkpt lat="43.35989" lon="-0.59643">
        <ele>112.130981</ele>
        <time>2011-05-08T13:39:34Z</time>
      </trkpt>
      <trkpt lat="43.35967" lon="-0.59672">
        <ele>112.130981</ele>
        <time>2011-05-08T13:39:41Z</time>
      </trkpt>
      <trkpt lat="43.35939" lon="-0.59739">
        <ele>112.130981</ele>
        <time>2011-05-08T13:39:53Z</time>
      </trkpt>
      <trkpt lat="43.35944" lon="-0.59769">
        <ele>112.130981</ele>
        <time>2011-05-08T13:39:58Z</time>
      </trkpt>
      <trkpt lat="43.36015" lon="-0.59866">
        <ele>112.130981</ele>
        <time>2011-05-08T13:40:17Z</time>
      </trkpt>
      <trkpt lat="43.36108" lon="-0.59994">
        <ele>111.650269</ele>
        <time>2011-05-08T13:40:41Z</time>
      </trkpt>
      <trkpt lat="43.36189" lon="-0.60078">
        <ele>111.169556</ele>
        <time>2011-05-08T13:40:59Z</time>
      </trkpt>
      <trkpt lat="43.36199" lon="-0.60084">
        <ele>111.650269</ele>
        <time>2011-05-08T13:41:01Z</time>
      </trkpt>
      <trkpt lat="43.3622" lon="-0.60089">
        <ele>111.169556</ele>
        <time>2011-05-08T13:41:05Z</time>
      </trkpt>
      <trkpt lat="43.36298" lon="-0.60108">
        <ele>110.208252</ele>
        <time>2011-05-08T13:41:20Z</time>
      </trkpt>
      <trkpt lat="43.36341" lon="-0.60113">
        <ele>110.688843</ele>
        <time>2011-05-08T13:41:29Z</time>
      </trkpt>
      <trkpt lat="43.36368" lon="-0.60132">
        <ele>110.208252</ele>
        <time>2011-05-08T13:41:35Z</time>
      </trkpt>
      <trkpt lat="43.36424" lon="-0.60236">
        <ele>110.208252</ele>
        <time>2011-05-08T13:41:54Z</time>
      </trkpt>
      <trkpt lat="43.36432" lon="-0.60246">
        <ele>109.727661</ele>
        <time>2011-05-08T13:41:56Z</time>
      </trkpt>
      <trkpt lat="43.36497" lon="-0.6031">
        <ele>109.727661</ele>
        <time>2011-05-08T13:42:11Z</time>
      </trkpt>
      <trkpt lat="43.36563" lon="-0.60373">
        <ele>109.246948</ele>
        <time>2011-05-08T13:42:27Z</time>
      </trkpt>
      <trkpt lat="43.36582" lon="-0.60394">
        <ele>110.208252</ele>
        <time>2011-05-08T13:42:32Z</time>
      </trkpt>
      <trkpt lat="43.36599" lon="-0.60414">
        <ele>109.246948</ele>
        <time>2011-05-08T13:42:38Z</time>
      </trkpt>
      <trkpt lat="43.36617" lon="-0.60396">
        <ele>109.727661</ele>
        <time>2011-05-08T13:42:45Z</time>
      </trkpt>
      <trkpt lat="43.36623" lon="-0.60386">
        <ele>109.246948</ele>
        <time>2011-05-08T13:42:47Z</time>
      </trkpt>
      <trkpt lat="43.36636" lon="-0.60353">
        <ele>109.727661</ele>
        <time>2011-05-08T13:42:53Z</time>
      </trkpt>
      <trkpt lat="43.36651" lon="-0.60305">
        <ele>110.208252</ele>
        <time>2011-05-08T13:43:01Z</time>
      </trkpt>
      <trkpt lat="43.36682" lon="-0.60199">
        <ele>109.727661</ele>
        <time>2011-05-08T13:43:19Z</time>
      </trkpt>
      <trkpt lat="43.36721" lon="-0.60076">
        <ele>109.727661</ele>
        <time>2011-05-08T13:43:39Z</time>
      </trkpt>
      <trkpt lat="43.36762" lon="-0.59973">
        <ele>111.169556</ele>
        <time>2011-05-08T13:43:56Z</time>
      </trkpt>
      <trkpt lat="43.3683" lon="-0.59883">
        <ele>110.208252</ele>
        <time>2011-05-08T13:44:15Z</time>
      </trkpt>
      <trkpt lat="43.36862" lon="-0.59841">
        <ele>109.246948</ele>
        <time>2011-05-08T13:44:25Z</time>
      </trkpt>
      <trkpt lat="43.36873" lon="-0.59851">
        <ele>109.246948</ele>
        <time>2011-05-08T13:44:30Z</time>
      </trkpt>
      <trkpt lat="43.3689" lon="-0.59947">
        <ele>109.246948</ele>
        <time>2011-05-08T13:44:46Z</time>
      </trkpt>
      <trkpt lat="43.36923" lon="-0.60077">
        <ele>108.766235</ele>
        <time>2011-05-08T13:45:05Z</time>
      </trkpt>
      <trkpt lat="43.36938" lon="-0.60185">
        <ele>108.766235</ele>
        <time>2011-05-08T13:45:20Z</time>
      </trkpt>
      <trkpt lat="43.36953" lon="-0.60207">
        <ele>108.285645</ele>
        <time>2011-05-08T13:45:24Z</time>
      </trkpt>
      <trkpt lat="43.37039" lon="-0.60278">
        <ele>108.766235</ele>
        <time>2011-05-08T13:45:42Z</time>
      </trkpt>
      <trkpt lat="43.37158" lon="-0.6036">
        <ele>108.766235</ele>
        <time>2011-05-08T13:46:06Z</time>
      </trkpt>
      <trkpt lat="43.37245" lon="-0.60436">
        <ele>108.285645</ele>
        <time>2011-05-08T13:46:25Z</time>
      </trkpt>
      <trkpt lat="43.37332" lon="-0.60491">
        <ele>108.766235</ele>
        <time>2011-05-08T13:46:43Z</time>
      </trkpt>
      <trkpt lat="43.37425" lon="-0.60528">
        <ele>108.766235</ele>
        <time>2011-05-08T13:47:01Z</time>
      </trkpt>
      <trkpt lat="43.37535" lon="-0.60532">
        <ele>108.285645</ele>
        <time>2011-05-08T13:47:21Z</time>
      </trkpt>
      <trkpt lat="43.37617" lon="-0.60517">
        <ele>107.805054</ele>
        <time>2011-05-08T13:47:38Z</time>
      </trkpt>
      <trkpt lat="43.37662" lon="-0.60505">
        <ele>107.324341</ele>
        <time>2011-05-08T13:47:49Z</time>
      </trkpt>
      <trkpt lat="43.37719" lon="-0.60522">
        <ele>106.363037</ele>
        <time>2011-05-08T13:48:04Z</time>
      </trkpt>
      <trkpt lat="43.37722" lon="-0.60524">
        <ele>105.882446</ele>
        <time>2011-05-08T13:48:07Z</time>
      </trkpt>
      <trkpt lat="43.37721" lon="-0.60563">
        <ele>106.363037</ele>
        <time>2011-05-08T13:48:19Z</time>
      </trkpt>
      <trkpt lat="43.37713" lon="-0.60602">
        <ele>106.843628</ele>
        <time>2011-05-08T13:48:26Z</time>
      </trkpt>
      <trkpt lat="43.37733" lon="-0.60647">
        <ele>105.882446</ele>
        <time>2011-05-08T13:48:35Z</time>
      </trkpt>
      <trkpt lat="43.37737" lon="-0.6065">
        <ele>106.363037</ele>
        <time>2011-05-08T13:48:36Z</time>
      </trkpt>
      <trkpt lat="43.3781" lon="-0.60722">
        <ele>106.363037</ele>
        <time>2011-05-08T13:48:54Z</time>
      </trkpt>
      <trkpt lat="43.3782" lon="-0.60748">
        <ele>105.882446</ele>
        <time>2011-05-08T13:48:59Z</time>
      </trkpt>
      <trkpt lat="43.37811" lon="-0.60774">
        <ele>105.401733</ele>
        <time>2011-05-08T13:49:04Z</time>
      </trkpt>
      <trkpt lat="43.37789" lon="-0.60816">
        <ele>105.401733</ele>
        <time>2011-05-08T13:49:12Z</time>
      </trkpt>
      <trkpt lat="43.37785" lon="-0.60842">
        <ele>105.401733</ele>
        <time>2011-05-08T13:49:16Z</time>
      </trkpt>
      <trkpt lat="43.37794" lon="-0.60881">
        <ele>105.882446</ele>
        <time>2011-05-08T13:49:22Z</time>
      </trkpt>
      <trkpt lat="43.37804" lon="-0.61011">
        <ele>104.921021</ele>
        <time>2011-05-08T13:49:40Z</time>
      </trkpt>
      <trkpt lat="43.37851" lon="-0.61107">
        <ele>105.401733</ele>
        <time>2011-05-08T13:49:55Z</time>
      </trkpt>
      <trkpt lat="43.37881" lon="-0.6115">
        <ele>105.401733</ele>
        <time>2011-05-08T13:50:03Z</time>
      </trkpt>
      <trkpt lat="43.3789" lon="-0.61162">
        <ele>104.921021</ele>
        <time>2011-05-08T13:50:06Z</time>
      </trkpt>
      <trkpt lat="43.37889" lon="-0.61199">
        <ele>105.882446</ele>
        <time>2011-05-08T13:50:13Z</time>
      </trkpt>
      <trkpt lat="43.37888" lon="-0.61205">
        <ele>105.882446</ele>
        <time>2011-05-08T13:50:14Z</time>
      </trkpt>
      <trkpt lat="43.37885" lon="-0.61254">
        <ele>107.324341</ele>
        <time>2011-05-08T13:50:22Z</time>
      </trkpt>
      <trkpt lat="43.37886" lon="-0.61266">
        <ele>106.363037</ele>
        <time>2011-05-08T13:50:24Z</time>
      </trkpt>
      <trkpt lat="43.37888" lon="-0.61278">
        <ele>106.363037</ele>
        <time>2011-05-08T13:50:26Z</time>
      </trkpt>
      <trkpt lat="43.37887" lon="-0.6135">
        <ele>105.882446</ele>
        <time>2011-05-08T13:50:36Z</time>
      </trkpt>
      <trkpt lat="43.37882" lon="-0.6138">
        <ele>105.401733</ele>
        <time>2011-05-08T13:50:41Z</time>
      </trkpt>
      <trkpt lat="43.37878" lon="-0.61531">
        <ele>105.401733</ele>
        <time>2011-05-08T13:51:04Z</time>
      </trkpt>
      <trkpt lat="43.37874" lon="-0.61625">
        <ele>106.843628</ele>
        <time>2011-05-08T13:51:18Z</time>
      </trkpt>
      <trkpt lat="43.37872" lon="-0.61695">
        <ele>106.843628</ele>
        <time>2011-05-08T13:51:29Z</time>
      </trkpt>
      <trkpt lat="43.37869" lon="-0.61776">
        <ele>106.363037</ele>
        <time>2011-05-08T13:51:41Z</time>
      </trkpt>
      <trkpt lat="43.37878" lon="-0.61796">
        <ele>106.363037</ele>
        <time>2011-05-08T13:51:45Z</time>
      </trkpt>
      <trkpt lat="43.379" lon="-0.61791">
        <ele>105.401733</ele>
        <time>2011-05-08T13:51:50Z</time>
      </trkpt>
      <trkpt lat="43.37912" lon="-0.61777">
        <ele>105.401733</ele>
        <time>2011-05-08T13:51:53Z</time>
      </trkpt>
      <trkpt lat="43.37939" lon="-0.61786">
        <ele>104.44043</ele>
        <time>2011-05-08T13:52:00Z</time>
      </trkpt>
      <trkpt lat="43.37947" lon="-0.6181">
        <ele>104.44043</ele>
        <time>2011-05-08T13:52:04Z</time>
      </trkpt>
      <trkpt lat="43.37954" lon="-0.61826">
        <ele>104.44043</ele>
        <time>2011-05-08T13:52:07Z</time>
      </trkpt>
      <trkpt lat="43.37964" lon="-0.61839">
        <ele>104.44043</ele>
        <time>2011-05-08T13:52:10Z</time>
      </trkpt>
      <trkpt lat="43.37984" lon="-0.61853">
        <ele>105.882446</ele>
        <time>2011-05-08T13:52:20Z</time>
      </trkpt>
      <trkpt lat="43.38026" lon="-0.61892">
        <ele>105.401733</ele>
        <time>2011-05-08T13:52:33Z</time>
      </trkpt>
      <trkpt lat="43.38092" lon="-0.61944">
        <ele>104.921021</ele>
        <time>2011-05-08T13:52:49Z</time>
      </trkpt>
      <trkpt lat="43.38118" lon="-0.61947">
        <ele>104.921021</ele>
        <time>2011-05-08T13:52:54Z</time>
      </trkpt>
      <trkpt lat="43.38204" lon="-0.6192">
        <ele>104.44043</ele>
        <time>2011-05-08T13:53:12Z</time>
      </trkpt>
      <trkpt lat="43.38244" lon="-0.6191">
        <ele>104.44043</ele>
        <time>2011-05-08T13:53:20Z</time>
      </trkpt>
      <trkpt lat="43.38329" lon="-0.61879">
        <ele>103.959717</ele>
        <time>2011-05-08T13:53:38Z</time>
      </trkpt>
      <trkpt lat="43.38405" lon="-0.61876">
        <ele>103.479004</ele>
        <time>2011-05-08T13:53:55Z</time>
      </trkpt>
      <trkpt lat="43.38483" lon="-0.61862">
        <ele>104.44043</ele>
        <time>2011-05-08T13:54:11Z</time>
      </trkpt>
      <trkpt lat="43.38492" lon="-0.61858">
        <ele>103.959717</ele>
        <time>2011-05-08T13:54:13Z</time>
      </trkpt>
      <trkpt lat="43.385" lon="-0.61853">
        <ele>103.959717</ele>
        <time>2011-05-08T13:54:15Z</time>
      </trkpt>
      <trkpt lat="43.3851" lon="-0.61841">
        <ele>103.479004</ele>
        <time>2011-05-08T13:54:18Z</time>
      </trkpt>
      <trkpt lat="43.38534" lon="-0.6179">
        <ele>103.959717</ele>
        <time>2011-05-08T13:54:27Z</time>
      </trkpt>
      <trkpt lat="43.38566" lon="-0.61784">
        <ele>102.5177</ele>
        <time>2011-05-08T13:54:34Z</time>
      </trkpt>
      <trkpt lat="43.38654" lon="-0.61843">
        <ele>102.5177</ele>
        <time>2011-05-08T13:54:54Z</time>
      </trkpt>
      <trkpt lat="43.38674" lon="-0.61848">
        <ele>102.037109</ele>
        <time>2011-05-08T13:54:59Z</time>
      </trkpt>
      <trkpt lat="43.38691" lon="-0.61839">
        <ele>102.037109</ele>
        <time>2011-05-08T13:55:04Z</time>
      </trkpt>
      <trkpt lat="43.38735" lon="-0.61849">
        <ele>102.037109</ele>
        <time>2011-05-08T13:55:16Z</time>
      </trkpt>
      <trkpt lat="43.38767" lon="-0.61842">
        <ele>101.556396</ele>
        <time>2011-05-08T13:55:27Z</time>
      </trkpt>
      <trkpt lat="43.38803" lon="-0.61782">
        <ele>100.595093</ele>
        <time>2011-05-08T13:55:41Z</time>
      </trkpt>
      <trkpt lat="43.38849" lon="-0.617">
        <ele>101.075684</ele>
        <time>2011-05-08T13:55:57Z</time>
      </trkpt>
      <trkpt lat="43.38864" lon="-0.61689">
        <ele>101.556396</ele>
        <time>2011-05-08T13:56:01Z</time>
      </trkpt>
      <trkpt lat="43.38901" lon="-0.61651">
        <ele>100.595093</ele>
        <time>2011-05-08T13:56:15Z</time>
      </trkpt>
      <trkpt lat="43.38913" lon="-0.61624">
        <ele>100.114502</ele>
        <time>2011-05-08T13:56:23Z</time>
      </trkpt>
      <trkpt lat="43.38905" lon="-0.61611">
        <ele>100.595093</ele>
        <time>2011-05-08T13:56:29Z</time>
      </trkpt>
      <trkpt lat="43.38873" lon="-0.61567">
        <ele>100.595093</ele>
        <time>2011-05-08T13:56:42Z</time>
      </trkpt>
      <trkpt lat="43.38836" lon="-0.61504">
        <ele>100.595093</ele>
        <time>2011-05-08T13:56:58Z</time>
      </trkpt>
      <trkpt lat="43.38809" lon="-0.61478">
        <ele>100.114502</ele>
        <time>2011-05-08T13:57:07Z</time>
      </trkpt>
      <trkpt lat="43.38738" lon="-0.61449">
        <ele>100.114502</ele>
        <time>2011-05-08T13:57:24Z</time>
      </trkpt>
      <trkpt lat="43.38699" lon="-0.61392">
        <ele>101.075684</ele>
        <time>2011-05-08T13:57:38Z</time>
      </trkpt>
      <trkpt lat="43.38659" lon="-0.61345">
        <ele>100.595093</ele>
        <time>2011-05-08T13:57:50Z</time>
      </trkpt>
      <trkpt lat="43.38638" lon="-0.6133">
        <ele>100.595093</ele>
        <time>2011-05-08T13:57:55Z</time>
      </trkpt>
      <trkpt lat="43.38554" lon="-0.61288">
        <ele>102.5177</ele>
        <time>2011-05-08T13:58:14Z</time>
      </trkpt>
      <trkpt lat="43.3847" lon="-0.61225">
        <ele>102.998291</ele>
        <time>2011-05-08T13:58:34Z</time>
      </trkpt>
      <trkpt lat="43.38412" lon="-0.6118">
        <ele>103.959717</ele>
        <time>2011-05-08T13:58:50Z</time>
      </trkpt>
      <trkpt lat="43.38374" lon="-0.61154">
        <ele>103.959717</ele>
        <time>2011-05-08T13:59:01Z</time>
      </trkpt>
      <trkpt lat="43.38352" lon="-0.61154">
        <ele>103.479004</ele>
        <time>2011-05-08T13:59:06Z</time>
      </trkpt>
      <trkpt lat="43.38322" lon="-0.6113">
        <ele>104.44043</ele>
        <time>2011-05-08T13:59:14Z</time>
      </trkpt>
      <trkpt lat="43.383" lon="-0.61092">
        <ele>104.921021</ele>
        <time>2011-05-08T13:59:21Z</time>
      </trkpt>
      <trkpt lat="43.38217" lon="-0.6102">
        <ele>104.921021</ele>
        <time>2011-05-08T13:59:41Z</time>
      </trkpt>
      <trkpt lat="43.38196" lon="-0.61024">
        <ele>103.959717</ele>
        <time>2011-05-08T13:59:47Z</time>
      </trkpt>
      <trkpt lat="43.38155" lon="-0.61097">
        <ele>104.921021</ele>
        <time>2011-05-08T14:00:02Z</time>
      </trkpt>
      <trkpt lat="43.38118" lon="-0.61167">
        <ele>104.44043</ele>
        <time>2011-05-08T14:00:17Z</time>
      </trkpt>
      <trkpt lat="43.38098" lon="-0.61227">
        <ele>104.44043</ele>
        <time>2011-05-08T14:00:28Z</time>
      </trkpt>
      <trkpt lat="43.38084" lon="-0.61238">
        <ele>104.921021</ele>
        <time>2011-05-08T14:00:32Z</time>
      </trkpt>
      <trkpt lat="43.38053" lon="-0.61238">
        <ele>104.44043</ele>
        <time>2011-05-08T14:00:39Z</time>
      </trkpt>
      <trkpt lat="43.38019" lon="-0.61212">
        <ele>104.44043</ele>
        <time>2011-05-08T14:00:48Z</time>
      </trkpt>
      <trkpt lat="43.37975" lon="-0.61182">
        <ele>104.44043</ele>
        <time>2011-05-08T14:00:59Z</time>
      </trkpt>
      <trkpt lat="43.37902" lon="-0.61161">
        <ele>103.959717</ele>
        <time>2011-05-08T14:01:15Z</time>
      </trkpt>
      <trkpt lat="43.37892" lon="-0.61168">
        <ele>104.44043</ele>
        <time>2011-05-08T14:01:19Z</time>
      </trkpt>
      <trkpt lat="43.37881" lon="-0.6116">
        <ele>104.44043</ele>
        <time>2011-05-08T14:01:23Z</time>
      </trkpt>
      <trkpt lat="43.37867" lon="-0.61132">
        <ele>104.44043</ele>
        <time>2011-05-08T14:01:28Z</time>
      </trkpt>
      <trkpt lat="43.37857" lon="-0.61117">
        <ele>104.44043</ele>
        <time>2011-05-08T14:01:31Z</time>
      </trkpt>
      <trkpt lat="43.37837" lon="-0.61087">
        <ele>104.44043</ele>
        <time>2011-05-08T14:01:37Z</time>
      </trkpt>
      <trkpt lat="43.37804" lon="-0.61024">
        <ele>104.921021</ele>
        <time>2011-05-08T14:01:49Z</time>
      </trkpt>
      <trkpt lat="43.37794" lon="-0.60906">
        <ele>104.44043</ele>
        <time>2011-05-08T14:02:07Z</time>
      </trkpt>
      <trkpt lat="43.37793" lon="-0.60892">
        <ele>104.921021</ele>
        <time>2011-05-08T14:02:09Z</time>
      </trkpt>
      <trkpt lat="43.37786" lon="-0.60854">
        <ele>104.921021</ele>
        <time>2011-05-08T14:02:15Z</time>
      </trkpt>
      <trkpt lat="43.37787" lon="-0.60815">
        <ele>104.921021</ele>
        <time>2011-05-08T14:02:21Z</time>
      </trkpt>
      <trkpt lat="43.37791" lon="-0.60803">
        <ele>105.401733</ele>
        <time>2011-05-08T14:02:23Z</time>
      </trkpt>
      <trkpt lat="43.37815" lon="-0.60763">
        <ele>104.921021</ele>
        <time>2011-05-08T14:02:31Z</time>
      </trkpt>
      <trkpt lat="43.37811" lon="-0.60723">
        <ele>105.401733</ele>
        <time>2011-05-08T14:02:38Z</time>
      </trkpt>
      <trkpt lat="43.37801" lon="-0.60709">
        <ele>105.882446</ele>
        <time>2011-05-08T14:02:41Z</time>
      </trkpt>
      <trkpt lat="43.3774" lon="-0.60653">
        <ele>105.882446</ele>
        <time>2011-05-08T14:02:57Z</time>
      </trkpt>
      <trkpt lat="43.37724" lon="-0.60638">
        <ele>105.882446</ele>
        <time>2011-05-08T14:03:01Z</time>
      </trkpt>
      <trkpt lat="43.37712" lon="-0.60594">
        <ele>106.363037</ele>
        <time>2011-05-08T14:03:09Z</time>
      </trkpt>
      <trkpt lat="43.37723" lon="-0.60535">
        <ele>106.363037</ele>
        <time>2011-05-08T14:03:19Z</time>
      </trkpt>
      <trkpt lat="43.37706" lon="-0.60512">
        <ele>105.882446</ele>
        <time>2011-05-08T14:03:25Z</time>
      </trkpt>
      <trkpt lat="43.37688" lon="-0.60506">
        <ele>106.843628</ele>
        <time>2011-05-08T14:03:29Z</time>
      </trkpt>
      <trkpt lat="43.37615" lon="-0.60514">
        <ele>107.324341</ele>
        <time>2011-05-08T14:03:44Z</time>
      </trkpt>
      <trkpt lat="43.37535" lon="-0.60529">
        <ele>106.843628</ele>
        <time>2011-05-08T14:04:03Z</time>
      </trkpt>
      <trkpt lat="43.37436" lon="-0.60527">
        <ele>106.843628</ele>
        <time>2011-05-08T14:04:22Z</time>
      </trkpt>
      <trkpt lat="43.37334" lon="-0.60494">
        <ele>108.285645</ele>
        <time>2011-05-08T14:04:40Z</time>
      </trkpt>
      <trkpt lat="43.37209" lon="-0.60414">
        <ele>108.285645</ele>
        <time>2011-05-08T14:05:03Z</time>
      </trkpt>
      <trkpt lat="43.37135" lon="-0.60341">
        <ele>107.805054</ele>
        <time>2011-05-08T14:05:18Z</time>
      </trkpt>
      <trkpt lat="43.37031" lon="-0.60273">
        <ele>108.285645</ele>
        <time>2011-05-08T14:05:37Z</time>
      </trkpt>
      <trkpt lat="43.36956" lon="-0.60209">
        <ele>108.766235</ele>
        <time>2011-05-08T14:05:52Z</time>
      </trkpt>
      <trkpt lat="43.36951" lon="-0.60205">
        <ele>108.766235</ele>
        <time>2011-05-08T14:05:53Z</time>
      </trkpt>
      <trkpt lat="43.36936" lon="-0.60182">
        <ele>108.766235</ele>
        <time>2011-05-08T14:05:57Z</time>
      </trkpt>
      <trkpt lat="43.36923" lon="-0.60131">
        <ele>108.766235</ele>
        <time>2011-05-08T14:06:04Z</time>
      </trkpt>
      <trkpt lat="43.36914" lon="-0.60021">
        <ele>108.285645</ele>
        <time>2011-05-08T14:06:18Z</time>
      </trkpt>
      <trkpt lat="43.3688" lon="-0.59911">
        <ele>108.285645</ele>
        <time>2011-05-08T14:06:34Z</time>
      </trkpt>
      <trkpt lat="43.3687" lon="-0.59842">
        <ele>108.766235</ele>
        <time>2011-05-08T14:06:47Z</time>
      </trkpt>
      <trkpt lat="43.36842" lon="-0.59872">
        <ele>108.766235</ele>
        <time>2011-05-08T14:06:57Z</time>
      </trkpt>
      <trkpt lat="43.36778" lon="-0.59958">
        <ele>110.208252</ele>
        <time>2011-05-08T14:07:15Z</time>
      </trkpt>
      <trkpt lat="43.36757" lon="-0.59987">
        <ele>110.688843</ele>
        <time>2011-05-08T14:07:21Z</time>
      </trkpt>
      <trkpt lat="43.36722" lon="-0.60088">
        <ele>109.727661</ele>
        <time>2011-05-08T14:07:35Z</time>
      </trkpt>
      <trkpt lat="43.36668" lon="-0.60261">
        <ele>109.727661</ele>
        <time>2011-05-08T14:07:57Z</time>
      </trkpt>
      <trkpt lat="43.36661" lon="-0.60283">
        <ele>109.727661</ele>
        <time>2011-05-08T14:08:00Z</time>
      </trkpt>
      <trkpt lat="43.36625" lon="-0.60389">
        <ele>109.727661</ele>
        <time>2011-05-08T14:08:15Z</time>
      </trkpt>
      <trkpt lat="43.36616" lon="-0.60406">
        <ele>109.727661</ele>
        <time>2011-05-08T14:08:18Z</time>
      </trkpt>
      <trkpt lat="43.36594" lon="-0.60409">
        <ele>109.246948</ele>
        <time>2011-05-08T14:08:24Z</time>
      </trkpt>
      <trkpt lat="43.36568" lon="-0.60383">
        <ele>109.246948</ele>
        <time>2011-05-08T14:08:31Z</time>
      </trkpt>
      <trkpt lat="43.36523" lon="-0.60334">
        <ele>109.246948</ele>
        <time>2011-05-08T14:08:46Z</time>
      </trkpt>
      <trkpt lat="43.36458" lon="-0.6027">
        <ele>108.766235</ele>
        <time>2011-05-08T14:09:06Z</time>
      </trkpt>
      <trkpt lat="43.36444" lon="-0.60258">
        <ele>109.727661</ele>
        <time>2011-05-08T14:09:10Z</time>
      </trkpt>
      <trkpt lat="43.36398" lon="-0.60186">
        <ele>110.208252</ele>
        <time>2011-05-08T14:09:24Z</time>
      </trkpt>
      <trkpt lat="43.36365" lon="-0.60128">
        <ele>110.208252</ele>
        <time>2011-05-08T14:09:35Z</time>
      </trkpt>
      <trkpt lat="43.36355" lon="-0.60118">
        <ele>109.727661</ele>
        <time>2011-05-08T14:09:38Z</time>
      </trkpt>
      <trkpt lat="43.36333" lon="-0.60113">
        <ele>110.688843</ele>
        <time>2011-05-08T14:09:43Z</time>
      </trkpt>
      <trkpt lat="43.36303" lon="-0.60111">
        <ele>110.688843</ele>
        <time>2011-05-08T14:09:49Z</time>
      </trkpt>
      <trkpt lat="43.36213" lon="-0.60087">
        <ele>111.169556</ele>
        <time>2011-05-08T14:10:07Z</time>
      </trkpt>
      <trkpt lat="43.36189" lon="-0.60077">
        <ele>111.650269</ele>
        <time>2011-05-08T14:10:12Z</time>
      </trkpt>
      <trkpt lat="43.361" lon="-0.59979">
        <ele>111.169556</ele>
        <time>2011-05-08T14:10:33Z</time>
      </trkpt>
      <trkpt lat="43.3602" lon="-0.59867">
        <ele>111.650269</ele>
        <time>2011-05-08T14:10:54Z</time>
      </trkpt>
      <trkpt lat="43.35947" lon="-0.59768">
        <ele>111.650269</ele>
        <time>2011-05-08T14:11:13Z</time>
      </trkpt>
      <trkpt lat="43.35943" lon="-0.59734">
        <ele>111.169556</ele>
        <time>2011-05-08T14:11:19Z</time>
      </trkpt>
      <trkpt lat="43.35966" lon="-0.59677">
        <ele>111.169556</ele>
        <time>2011-05-08T14:11:28Z</time>
      </trkpt>
      <trkpt lat="43.36001" lon="-0.59623">
        <ele>112.611572</ele>
        <time>2011-05-08T14:11:38Z</time>
      </trkpt>
      <trkpt lat="43.36012" lon="-0.59533">
        <ele>113.092285</ele>
        <time>2011-05-08T14:11:52Z</time>
      </trkpt>
      <trkpt lat="43.36007" lon="-0.59465">
        <ele>113.092285</ele>
        <time>2011-05-08T14:12:06Z</time>
      </trkpt>
      <trkpt lat="43.36005" lon="-0.59435">
        <ele>112.130981</ele>
        <time>2011-05-08T14:12:12Z</time>
      </trkpt>
      <trkpt lat="43.3603" lon="-0.59427">
        <ele>112.130981</ele>
        <time>2011-05-08T14:12:20Z</time>
      </trkpt>
      <trkpt lat="43.36083" lon="-0.59432">
        <ele>111.169556</ele>
        <time>2011-05-08T14:12:34Z</time>
      </trkpt>
      <trkpt lat="43.361" lon="-0.59456">
        <ele>111.169556</ele>
        <time>2011-05-08T14:12:43Z</time>
      </trkpt>
      <trkpt lat="43.36121" lon="-0.59465">
        <ele>111.650269</ele>
        <time>2011-05-08T14:12:51Z</time>
      </trkpt>
      <trkpt lat="43.36153" lon="-0.59438">
        <ele>111.650269</ele>
        <time>2011-05-08T14:13:04Z</time>
      </trkpt>
      <trkpt lat="43.36178" lon="-0.59406">
        <ele>111.650269</ele>
        <time>2011-05-08T14:13:16Z</time>
      </trkpt>
      <trkpt lat="43.36181" lon="-0.59341">
        <ele>112.130981</ele>
        <time>2011-05-08T14:13:30Z</time>
      </trkpt>
      <trkpt lat="43.36196" lon="-0.59276">
        <ele>112.130981</ele>
        <time>2011-05-08T14:13:45Z</time>
      </trkpt>
      <trkpt lat="43.36192" lon="-0.59241">
        <ele>111.650269</ele>
        <time>2011-05-08T14:13:52Z</time>
      </trkpt>
      <trkpt lat="43.36168" lon="-0.59186">
        <ele>111.650269</ele>
        <time>2011-05-08T14:14:04Z</time>
      </trkpt>
      <trkpt lat="43.36141" lon="-0.5913">
        <ele>112.130981</ele>
        <time>2011-05-08T14:14:16Z</time>
      </trkpt>
      <trkpt lat="43.3613" lon="-0.591">
        <ele>111.169556</ele>
        <time>2011-05-08T14:14:24Z</time>
      </trkpt>
      <trkpt lat="43.36107" lon="-0.59112">
        <ele>111.650269</ele>
        <time>2011-05-08T14:14:32Z</time>
      </trkpt>
      <trkpt lat="43.36071" lon="-0.59135">
        <ele>111.650269</ele>
        <time>2011-05-08T14:14:41Z</time>
      </trkpt>
      <trkpt lat="43.36005" lon="-0.59155">
        <ele>113.092285</ele>
        <time>2011-05-08T14:14:56Z</time>
      </trkpt>
      <trkpt lat="43.35985" lon="-0.5916">
        <ele>112.611572</ele>
        <time>2011-05-08T14:15:00Z</time>
      </trkpt>
      <trkpt lat="43.35922" lon="-0.5918">
        <ele>113.572998</ele>
        <time>2011-05-08T14:15:13Z</time>
      </trkpt>
      <trkpt lat="43.35897" lon="-0.59188">
        <ele>113.092285</ele>
        <time>2011-05-08T14:15:18Z</time>
      </trkpt>
      <trkpt lat="43.35854" lon="-0.59198">
        <ele>113.092285</ele>
        <time>2011-05-08T14:15:26Z</time>
      </trkpt>
      <trkpt lat="43.3582" lon="-0.59202">
        <ele>113.092285</ele>
        <time>2011-05-08T14:15:35Z</time>
      </trkpt>
      <trkpt lat="43.35816" lon="-0.5919">
        <ele>113.572998</ele>
        <time>2011-05-08T14:15:39Z</time>
      </trkpt>
      <trkpt lat="43.35818" lon="-0.59146">
        <ele>113.572998</ele>
        <time>2011-05-08T14:15:50Z</time>
      </trkpt>
      <trkpt lat="43.3579" lon="-0.5912">
        <ele>113.092285</ele>
        <time>2011-05-08T14:15:59Z</time>
      </trkpt>
      <trkpt lat="43.35787" lon="-0.59118">
        <ele>113.092285</ele>
        <time>2011-05-08T14:16:00Z</time>
      </trkpt>
      <trkpt lat="43.35774" lon="-0.59097">
        <ele>113.092285</ele>
        <time>2011-05-08T14:16:05Z</time>
      </trkpt>
      <trkpt lat="43.35766" lon="-0.59074">
        <ele>113.572998</ele>
        <time>2011-05-08T14:16:10Z</time>
      </trkpt>
      <trkpt lat="43.35762" lon="-0.59045">
        <ele>112.611572</ele>
        <time>2011-05-08T14:16:15Z</time>
      </trkpt>
      <trkpt lat="43.35756" lon="-0.58978">
        <ele>114.053589</ele>
        <time>2011-05-08T14:16:28Z</time>
      </trkpt>
      <trkpt lat="43.3573" lon="-0.58937">
        <ele>113.572998</ele>
        <time>2011-05-08T14:16:39Z</time>
      </trkpt>
      <trkpt lat="43.35683" lon="-0.58908">
        <ele>112.611572</ele>
        <time>2011-05-08T14:16:51Z</time>
      </trkpt>
      <trkpt lat="43.35645" lon="-0.58884">
        <ele>113.092285</ele>
        <time>2011-05-08T14:17:03Z</time>
      </trkpt>
      <trkpt lat="43.35614" lon="-0.58868">
        <ele>113.572998</ele>
        <time>2011-05-08T14:17:15Z</time>
      </trkpt>
      <trkpt lat="43.35605" lon="-0.58823">
        <ele>114.053589</ele>
        <time>2011-05-08T14:17:25Z</time>
      </trkpt>
      <trkpt lat="43.3559" lon="-0.58794">
        <ele>113.572998</ele>
        <time>2011-05-08T14:17:32Z</time>
      </trkpt>
      <trkpt lat="43.35585" lon="-0.58766">
        <ele>114.053589</ele>
        <time>2011-05-08T14:17:37Z</time>
      </trkpt>
      <trkpt lat="43.35582" lon="-0.58688">
        <ele>114.053589</ele>
        <time>2011-05-08T14:17:53Z</time>
      </trkpt>
      <trkpt lat="43.35571" lon="-0.58629">
        <ele>114.53418</ele>
        <time>2011-05-08T14:18:06Z</time>
      </trkpt>
      <trkpt lat="43.35565" lon="-0.58585">
        <ele>113.572998</ele>
        <time>2011-05-08T14:18:16Z</time>
      </trkpt>
      <trkpt lat="43.35565" lon="-0.58565">
        <ele>114.053589</ele>
        <time>2011-05-08T14:18:20Z</time>
      </trkpt>
      <trkpt lat="43.3558" lon="-0.58512">
        <ele>114.053589</ele>
        <time>2011-05-08T14:18:30Z</time>
      </trkpt>
      <trkpt lat="43.35608" lon="-0.58448">
        <ele>114.053589</ele>
        <time>2011-05-08T14:18:44Z</time>
      </trkpt>
      <trkpt lat="43.3561" lon="-0.58432">
        <ele>114.053589</ele>
        <time>2011-05-08T14:18:47Z</time>
      </trkpt>
      <trkpt lat="43.35616" lon="-0.58371">
        <ele>114.053589</ele>
        <time>2011-05-08T14:18:59Z</time>
      </trkpt>
      <trkpt lat="43.35626" lon="-0.58323">
        <ele>114.053589</ele>
        <time>2011-05-08T14:19:11Z</time>
      </trkpt>
      <trkpt lat="43.35623" lon="-0.58303">
        <ele>114.053589</ele>
        <time>2011-05-08T14:19:20Z</time>
      </trkpt>
      <trkpt lat="43.35622" lon="-0.58304">
        <ele>114.053589</ele>
        <time>2011-05-08T14:19:38Z</time>
      </trkpt>
      <trkpt lat="43.35619" lon="-0.58302">
        <ele>113.572998</ele>
        <time>2011-05-08T14:19:52Z</time>
      </trkpt>
    </trkseg>
  </trk>
</gpx>